Observation data for Wolfforth on 05/04/2021      Previous  Date  Next       Current Mesonet Observations  Soil Data  Daily Summary Page  Observations in Plain Language
KWOS 040500Z 35017KT 11/08 A2995 RMK A01 T01070078  RH  082%=      5-min Rain = 0
KWOS 040501Z 35017KT 11/08 A2995 RMK A01 T01060078  RH  083%=      5-min Rain = 0
KWOS 040502Z 35018KT 11/08 A2995 RMK A01 T01050078  RH  083%=      5-min Rain = 0
KWOS 040503Z 35018KT 11/08 A2995 RMK A01 T01050078  RH  084%=      5-min Rain = 0
KWOS 040504Z 35017KT 10/08 A2995 RMK A01 T01040079  RH  084%=      5-min Rain = 0
KWOS 040505Z 35016G21KT 10/08 A2995 RMK A01 T01040079  RH  084%=      5-min Rain = 0
KWOS 040506Z 35017KT 10/08 A2995 RMK A01 T01040079  RH  085%=      5-min Rain = 0
KWOS 040507Z 35017KT 10/08 A2995 RMK A01 T01030079  RH  085%=      5-min Rain = 0
KWOS 040508Z 35017KT 10/08 A2995 RMK A01 T01030079  RH  085%=      5-min Rain = 0
KWOS 040509Z 35017KT 10/08 A2995 RMK A01 T01030079  RH  085%=      5-min Rain = 0
KWOS 040510Z 35017KT 10/08 A2995 RMK A01 T01030079  RH  085%=      5-min Rain = 0
KWOS 040511Z 35016KT 10/08 A2995 RMK A01 T01030078  RH  085%=      5-min Rain = 0
KWOS 040512Z 35016KT 10/08 A2996 RMK A01 T01030078  RH  085%=      5-min Rain = 0
KWOS 040513Z 35015KT 10/08 A2996 RMK A01 T01030079  RH  085%=      5-min Rain = 0
KWOS 040514Z 35015KT 10/08 A2996 RMK A01 T01020079  RH  085%=      5-min Rain = 0
KWOS 040515Z 35016KT 10/08 A2996 RMK A01 T01020079  RH  086%=      5-min Rain = 0
KWOS 040516Z 35015KT 10/08 A2996 RMK A01 T01010079  RH  086%=      5-min Rain = 0
KWOS 040517Z 35014KT 10/08 A2996 RMK A01 T01010079  RH  086%=      5-min Rain = 0
KWOS 040518Z 35014KT 10/08 A2996 RMK A01 T01000079  RH  086%=      5-min Rain = 0
KWOS 040519Z 35015KT 10/08 A2996 RMK A01 T01000079  RH  087%=      5-min Rain = 0
KWOS 040520Z 35014KT 10/08 A2997 RMK A01 T01000078  RH  086%=      5-min Rain = 0
KWOS 040521Z 35015KT 10/08 A2997 RMK A01 T01010078  RH  086%=      5-min Rain = 0
KWOS 040522Z 35015KT 10/08 A2997 RMK A01 T01010078  RH  086%=      5-min Rain = 0
KWOS 040523Z 35014KT 10/08 A2997 RMK A01 T01010078  RH  086%=      5-min Rain = 0
KWOS 040524Z 35013KT 10/08 A2997 RMK A01 T01000079  RH  086%=      5-min Rain = 0
KWOS 040525Z 35014KT 10/08 A2997 RMK A01 T01000078  RH  087%=      5-min Rain = 0
KWOS 040526Z 35013KT 10/08 A2997 RMK A01 T01000078  RH  087%=      5-min Rain = 0
KWOS 040527Z 35014KT 10/08 A2997 RMK A01 T01000078  RH  087%=      5-min Rain = 0
KWOS 040528Z 35013KT 10/08 A2997 RMK A01 T01000079  RH  087%=      5-min Rain = 0
KWOS 040529Z 35014KT 10/08 A2997 RMK A01 T01000079  RH  087%=      5-min Rain = 0
KWOS 040530Z 34012KT 10/08 A2997 RMK A01 T01000079  RH  086%=      5-min Rain = 0
KWOS 040531Z 35013KT 10/08 A2997 RMK A01 T01000079  RH  087%=      5-min Rain = 0
KWOS 040532Z 35013KT 10/08 A2997 RMK A01 T00990078  RH  087%=      5-min Rain = 0
KWOS 040533Z 35013KT 10/08 A2997 RMK A01 T00990079  RH  087%=      5-min Rain = 0
KWOS 040534Z 35012KT 10/08 A2997 RMK A01 T00990079  RH  087%=      5-min Rain = 0
KWOS 040535Z 35012KT 10/08 A2997 RMK A01 T00980079  RH  088%=      5-min Rain = 0
KWOS 040536Z 35013KT 10/08 A2997 RMK A01 T00980079  RH  088%=      5-min Rain = 0
KWOS 040537Z 35013KT 10/08 A2997 RMK A01 T00980079  RH  088%=      5-min Rain = 0
KWOS 040538Z 35013KT 10/08 A2997 RMK A01 T00980079  RH  088%=      5-min Rain = 0
KWOS 040539Z 35013KT 10/08 A2997 RMK A01 T00980079  RH  088%=      5-min Rain = 0
KWOS 040540Z 35013KT 10/08 A2998 RMK A01 T00980079  RH  088%=      5-min Rain = 0
KWOS 040541Z 35014KT 10/08 A2998 RMK A01 T00980079  RH  088%=      5-min Rain = 0
KWOS 040542Z 34013KT 10/08 A2998 RMK A01 T00980080  RH  088%=      5-min Rain = 0
KWOS 040543Z 35013KT 10/08 A2998 RMK A01 T00980080  RH  089%=      5-min Rain = 0
KWOS 040544Z 35012KT 10/08 A2998 RMK A01 T00980080  RH  089%=      5-min Rain = 0
KWOS 040545Z 35012KT 10/08 A2998 RMK A01 T00970079  RH  089%=      5-min Rain = 0
KWOS 040546Z 35013KT 10/08 A2998 RMK A01 T00970079  RH  089%=      5-min Rain = 0
KWOS 040547Z 35013KT 10/08 A2998 RMK A01 T00970079  RH  089%=      5-min Rain = 0
KWOS 040548Z 35013KT 10/08 A2998 RMK A01 T00970080  RH  089%=      5-min Rain = 0
KWOS 040549Z 35014KT 10/08 A2998 RMK A01 T00970080  RH  089%=      5-min Rain = 0
KWOS 040550Z 35014KT 10/08 A2998 RMK A01 T00970080  RH  089%=      5-min Rain = 0
KWOS 040551Z 35013KT 10/08 A2998 RMK A01 T00970080  RH  089%=      5-min Rain = 0
KWOS 040552Z 35013KT 10/08 A2998 RMK A01 T00970080  RH  089%=      5-min Rain = 0
KWOS 040553Z 35015KT 10/08 A2998 RMK A01 T00970080  RH  089%=      5-min Rain = 0
KWOS 040554Z 35014KT 10/08 A2998 RMK A01 T00970080  RH  089%=      5-min Rain = 0
KWOS 040555Z 35014KT 10/08 A2998 RMK A01 T00970080  RH  089%=      5-min Rain = 0
KWOS 040556Z 35013KT 10/08 A2998 RMK A01 T00970080  RH  089%=      5-min Rain = 0
KWOS 040557Z 35015KT 10/08 A2998 RMK A01 T00970081  RH  090%=      5-min Rain = 0
KWOS 040558Z 35013KT 10/08 A2998 RMK A01 T00970081  RH  090%=      5-min Rain = 0
KWOS 040559Z 35014KT 10/08 A2998 RMK A01 T00970081  RH  090%=      5-min Rain = 0
KWOS 040600Z 35014KT 10/08 A2998 RMK A01 T00970081  RH  090%=      5-min Rain = 0
KWOS 040601Z 35014KT 10/08 A2997 RMK A01 T00970081  RH  090%=      5-min Rain = 0
KWOS 040602Z 35015KT 10/08 A2997 RMK A01 T00970081  RH  090%=      5-min Rain = 0
KWOS 040603Z 35015KT 10/08 A2997 RMK A01 T00970081  RH  090%=      5-min Rain = 0
KWOS 040604Z 35015KT 10/08 A2997 RMK A01 T00970081  RH  090%=      5-min Rain = 0
KWOS 040605Z 35015KT 10/08 A2997 RMK A01 T00970081  RH  090%=      5-min Rain = 0
KWOS 040606Z 35016KT 10/08 A2997 RMK A01 T00970081  RH  090%=      5-min Rain = 0
KWOS 040607Z 35016KT 10/08 A2997 RMK A01 T00970081  RH  090%=      5-min Rain = 0
KWOS 040608Z 35016KT 10/08 A2997 RMK A01 T00970082  RH  090%=      5-min Rain = 0
KWOS 040609Z 36016KT 10/08 A2997 RMK A01 T00970082  RH  090%=      5-min Rain = 0
KWOS 040610Z 35016KT 10/08 A2997 RMK A01 T00970082  RH  090%=      5-min Rain = 0
KWOS 040611Z 36018KT 10/08 A2997 RMK A01 T00970082  RH  090%=      5-min Rain = 0
KWOS 040612Z 35018KT 10/08 A2998 RMK A01 T00970082  RH  090%=      5-min Rain = 0
KWOS 040613Z 35017KT 10/08 A2998 RMK A01 T00970082  RH  090%=      5-min Rain = 0
KWOS 040614Z 35016KT 10/08 A2998 RMK A01 T00970082  RH  090%=      5-min Rain = 0
KWOS 040615Z 35016KT 10/08 A2998 RMK A01 T00970082  RH  090%=      5-min Rain = 0
KWOS 040616Z 36015KT 10/08 A2998 RMK A01 T00970082  RH  090%=      5-min Rain = 0
KWOS 040617Z 36017G23KT 10/08 A2998 RMK A01 T00970082  RH  091%=      5-min Rain = 0
KWOS 040618Z 36021G27KT 10/08 A2998 RMK A01 T00970083  RH  091%=      5-min Rain = 0
KWOS 040619Z 36017G22KT 10/08 A2998 RMK A01 T00990084  RH  091%=      5-min Rain = 0
KWOS 040620Z 00017KT 10/08 A2998 RMK A01 T00990084  RH  090%=      5-min Rain = 0
KWOS 040621Z 36019G25KT 10/08 A2998 RMK A01 T00990084  RH  090%=      5-min Rain = 0
KWOS 040622Z 00020G25KT 10/08 A2998 RMK A01 T00990084  RH  090%=      5-min Rain = 0
KWOS 040623Z 00019G24KT 10/08 A2998 RMK A01 T01000084  RH  090%=      5-min Rain = 0
KWOS 040624Z 00018KT 10/08 A2998 RMK A01 T01000084  RH  090%=      5-min Rain = 0
KWOS 040625Z 00017KT 10/08 A2998 RMK A01 T01000084  RH  090%=      5-min Rain = 0
KWOS 040626Z 00015G21KT 10/08 A2998 RMK A01 T01000084  RH  090%=      5-min Rain = 0
KWOS 040627Z 00017KT 10/09 A2998 RMK A01 T01000085  RH  090%=      5-min Rain = 0
KWOS 040628Z 00016KT 10/09 A2998 RMK A01 T01000085  RH  090%=      5-min Rain = 0
KWOS 040629Z 01017KT 10/09 A2998 RMK A01 T01000085  RH  090%=      5-min Rain = 0
KWOS 040630Z 00016KT 10/09 A2998 RMK A01 T01010086  RH  090%=      5-min Rain = 0
KWOS 040631Z 00016KT 10/09 A2998 RMK A01 T01010086  RH  090%=      5-min Rain = 0
KWOS 040632Z 01017KT 10/09 A2998 RMK A01 T01010086  RH  090%=      5-min Rain = 0
KWOS 040633Z 01018G24KT 10/09 A2998 RMK A01 T01010086  RH  090%=      5-min Rain = 0
KWOS 040634Z 01018G23KT 10/09 A2998 RMK A01 T01010086  RH  090%=      5-min Rain = 0
KWOS 040635Z 00019KT 10/09 A2998 RMK A01 T01020086  RH  090%=      5-min Rain = 0
KWOS 040636Z 00019G24KT 10/09 A2998 RMK A01 T01020086  RH  090%=      5-min Rain = 0
KWOS 040637Z 01021G30KT 10/09 A2998 RMK A01 T01020086  RH  089%=      5-min Rain = 0
KWOS 040638Z 01023G28KT 10/09 A2998 RMK A01 T01030085  RH  089%=      5-min Rain = 0
KWOS 040639Z 01019G24KT 10/09 A2997 RMK A01 T01030085  RH  089%=      5-min Rain = 0
KWOS 040640Z 01019G24KT 10/09 A2997 RMK A01 T01030085  RH  089%=      5-min Rain = 0
KWOS 040641Z 01018G23KT 10/09 A2997 RMK A01 T01030086  RH  089%=      5-min Rain = 0
KWOS 040642Z 00021G26KT 10/09 A2997 RMK A01 T01030086  RH  089%=      5-min Rain = 0
KWOS 040643Z 00022KT 10/09 A2997 RMK A01 T01030086  RH  089%=      5-min Rain = 0
KWOS 040644Z 00020G27KT 10/09 A2997 RMK A01 T01030085  RH  088%=      5-min Rain = 0
KWOS 040645Z 00023G28KT 10/09 A2997 RMK A01 T01030085  RH  088%=      5-min Rain = 0
KWOS 040646Z 01020G26KT 10/09 A2997 RMK A01 T01040085  RH  088%=      5-min Rain = 0
KWOS 040647Z 01021KT 10/09 A2997 RMK A01 T01040085  RH  088%=      5-min Rain = 0
KWOS 040648Z 01018KT 10/09 A2998 RMK A01 T01040085  RH  088%=      5-min Rain = 0
KWOS 040649Z 01016KT 10/09 A2998 RMK A01 T01030085  RH  089%=      5-min Rain = 0
KWOS 040650Z 01019G26KT 10/09 A2998 RMK A01 T01030086  RH  089%=      5-min Rain = 0
KWOS 040651Z 01020G25KT 10/09 A2998 RMK A01 T01030086  RH  089%=      5-min Rain = 0
KWOS 040652Z 01020G25KT 10/09 A2998 RMK A01 T01030085  RH  089%=      5-min Rain = 0
KWOS 040653Z 00019G25KT 10/09 A2998 RMK A01 T01030085  RH  089%=      5-min Rain = 0
KWOS 040654Z 00018KT 10/09 A2998 RMK A01 T01030085  RH  088%=      5-min Rain = 0
KWOS 040655Z 00018KT 10/09 A2998 RMK A01 T01030085  RH  088%=      5-min Rain = 0
KWOS 040656Z 00018G23KT 10/09 A2998 RMK A01 T01030085  RH  088%=      5-min Rain = 0
KWOS 040657Z 00020KT 10/09 A2998 RMK A01 T01030085  RH  089%=      5-min Rain = 0
KWOS 040658Z 00019G25KT 10/09 A2998 RMK A01 T01040085  RH  088%=      5-min Rain = 0
KWOS 040659Z 01018KT 10/09 A2998 RMK A01 T01040086  RH  088%=      5-min Rain = 0
KWOS 040700Z 00023G29KT 10/09 A2998 RMK A01 T01040086  RH  089%=      5-min Rain = 0
KWOS 040701Z 00021G26KT 10/09 A2998 RMK A01 T01040085  RH  088%=      5-min Rain = 0
KWOS 040702Z 01023G29KT 10/09 A2998 RMK A01 T01040085  RH  088%=      5-min Rain = 0
KWOS 040703Z 00023G29KT 10/08 A2998 RMK A01 T01040084  RH  087%=      5-min Rain = 0
KWOS 040704Z 00022G28KT 10/08 A2998 RMK A01 T01040084  RH  087%=      5-min Rain = 0
KWOS 040705Z 01023KT 10/08 A2998 RMK A01 T01040084  RH  087%=      5-min Rain = 0
KWOS 040706Z 01025G31KT 10/08 A2998 RMK A01 T01040084  RH  087%=      5-min Rain = 0
KWOS 040707Z 01026G31KT 10/08 A2998 RMK A01 T01040083  RH  087%=      5-min Rain = 0
KWOS 040708Z 00023G28KT 10/08 A2999 RMK A01 T01040083  RH  087%=      5-min Rain = 0
KWOS 040709Z 01024G30KT 10/08 A2999 RMK A01 T01040083  RH  087%=      5-min Rain = 0
KWOS 040710Z 01023KT 10/08 A2999 RMK A01 T01040083  RH  087%=      5-min Rain = 0
KWOS 040711Z 01026G32KT 10/08 A2999 RMK A01 T01030083  RH  087%=      5-min Rain = 0
KWOS 040712Z 01021G28KT 10/08 A2999 RMK A01 T01030082  RH  087%=      5-min Rain = 0
KWOS 040713Z 01020G27KT 10/08 A2999 RMK A01 T01030083  RH  087%=      5-min Rain = 0
KWOS 040714Z 01021G27KT 10/08 A2999 RMK A01 T01030084  RH  087%=      5-min Rain = 0
KWOS 040715Z 01019G25KT 10/08 A2999 RMK A01 T01030084  RH  088%=      5-min Rain = 0
KWOS 040716Z 01020KT 10/08 A2999 RMK A01 T01030084  RH  088%=      5-min Rain = 0
KWOS 040717Z 01017G23KT 10/08 A2999 RMK A01 T01030084  RH  088%=      5-min Rain = 0
KWOS 040718Z 01016G21KT 10/08 A2999 RMK A01 T01030084  RH  088%=      5-min Rain = 0
KWOS 040719Z 01020G25KT 10/09 A30 RMK A01 T01030085  RH  088%=      5-min Rain = 0
KWOS 040720Z 00018G24KT 10/08 A30 RMK A01 T01030084  RH  088%=      5-min Rain = 0
KWOS 040721Z 01020G25KT 10/08 A30 RMK A01 T01030084  RH  088%=      5-min Rain = 0
KWOS 040722Z 00022G28KT 10/08 A30 RMK A01 T01030083  RH  087%=      5-min Rain = 0
KWOS 040723Z 00025G30KT 10/08 A30 RMK A01 T01030083  RH  087%=      5-min Rain = 0
KWOS 040724Z 01026KT 10/08 A30 RMK A01 T01030083  RH  087%=      5-min Rain = 0
KWOS 040725Z 01026KT 10/08 A30 RMK A01 T01030082  RH  087%=      5-min Rain = 0
KWOS 040726Z 01023G30KT 10/08 A30 RMK A01 T01030082  RH  087%=      5-min Rain = 0
KWOS 040727Z 01025G30KT 10/08 A30 RMK A01 T01030082  RH  087%=      5-min Rain = 0
KWOS 040728Z 01025G30KT 10/08 A30 RMK A01 T01030082  RH  087%=      5-min Rain = 0
KWOS 040729Z 01021G28KT 10/08 A30 RMK A01 T01030082  RH  087%=      5-min Rain = 0
KWOS 040730Z 01023G28KT 10/08 A30 RMK A01 T01030082  RH  087%=      5-min Rain = 0
KWOS 040731Z 01023G28KT 10/08 A30 RMK A01 T01030082  RH  087%=      5-min Rain = 0
KWOS 040732Z 01020KT 10/08 A30 RMK A01 T01030082  RH  087%=      5-min Rain = 0
KWOS 040733Z 01022KT 10/08 A30 RMK A01 T01030082  RH  087%=      5-min Rain = 0
KWOS 040734Z 01021KT 10/08 A30 RMK A01 T01030082  RH  087%=      5-min Rain = 0
KWOS 040735Z 01020KT 10/08 A30 RMK A01 T01030082  RH  087%=      5-min Rain = 0
KWOS 040736Z 01019G25KT 10/08 A30 RMK A01 T01030082  RH  087%=      5-min Rain = 0
KWOS 040737Z 01023G29KT 10/08 A30 RMK A01 T01030082  RH  087%=      5-min Rain = 0
KWOS 040738Z 01023G30KT 10/08 A30 RMK A01 T01030082  RH  087%=      5-min Rain = 0
KWOS 040739Z 02021G28KT 10/08 A30 RMK A01 T01030081  RH  086%=      5-min Rain = 0
KWOS 040740Z 01024KT 10/08 A30 RMK A01 T01030082  RH  086%=      5-min Rain = 0
KWOS 040741Z 01021KT 10/08 A3001 RMK A01 T01030081  RH  086%=      5-min Rain = 0
KWOS 040742Z 02021G26KT 10/08 A3001 RMK A01 T01030082  RH  086%=      5-min Rain = 0
KWOS 040743Z 01019G24KT 10/08 A3001 RMK A01 T01030082  RH  087%=      5-min Rain = 0
KWOS 040744Z 01023G29KT 10/08 A3001 RMK A01 T01030082  RH  086%=      5-min Rain = 0
KWOS 040745Z 01020G26KT 10/08 A3001 RMK A01 T01030081  RH  086%=      5-min Rain = 0
KWOS 040746Z 01022G28KT 10/08 A3001 RMK A01 T01030081  RH  086%=      5-min Rain = 0
KWOS 040747Z 02021G29KT 10/08 A3001 RMK A01 T01030081  RH  086%=      5-min Rain = 0
KWOS 040748Z 02022KT 10/08 A3001 RMK A01 T01030081  RH  086%=      5-min Rain = 0
KWOS 040749Z 02019G24KT 10/08 A3001 RMK A01 T01030080  RH  085%=      5-min Rain = 0
KWOS 040750Z 02019G24KT 10/08 A3001 RMK A01 T01030080  RH  085%=      5-min Rain = 0
KWOS 040751Z 01017G22KT 10/08 A3001 RMK A01 T01030079  RH  085%=      5-min Rain = 0
KWOS 040752Z 02020G26KT 10/08 A3001 RMK A01 T01030080  RH  085%=      5-min Rain = 0
KWOS 040753Z 02021G30KT 10/08 A3001 RMK A01 T01030079  RH  085%=      5-min Rain = 0
KWOS 040754Z 01018KT 10/08 A3001 RMK A01 T01030079  RH  085%=      5-min Rain = 0
KWOS 040755Z 01015G20KT 10/08 A3001 RMK A01 T01030080  RH  086%=      5-min Rain = 0
KWOS 040756Z 01017KT 10/08 A3001 RMK A01 T01030081  RH  086%=      5-min Rain = 0
KWOS 040757Z 01016KT 10/08 A3001 RMK A01 T01030080  RH  086%=      5-min Rain = 0
KWOS 040758Z 01019G25KT 10/08 A3001 RMK A01 T01030080  RH  086%=      5-min Rain = 0
KWOS 040759Z 01022KT 10/08 A3001 RMK A01 T01030080  RH  085%=      5-min Rain = 0
KWOS 040800Z 01023G28KT 10/08 A3001 RMK A01 T01030079  RH  085%=      5-min Rain = 0
KWOS 040801Z 01024KT 10/08 A3001 RMK A01 T01030078  RH  084%=      5-min Rain = 0
KWOS 040802Z 01018KT 10/08 A3001 RMK A01 T01030078  RH  084%=      5-min Rain = 0
KWOS 040803Z 01018KT 10/08 A3001 RMK A01 T01030079  RH  085%=      5-min Rain = 0
KWOS 040804Z 01017G22KT 10/08 A3001 RMK A01 T01030080  RH  085%=      5-min Rain = 0
KWOS 040805Z 01016KT 10/08 A3001 RMK A01 T01030081  RH  086%=      5-min Rain = 0
KWOS 040806Z 01016G23KT 10/08 A3001 RMK A01 T01030081  RH  086%=      5-min Rain = 0
KWOS 040807Z 01020G25KT 10/08 A3001 RMK A01 T01030081  RH  086%=      5-min Rain = 0
KWOS 040808Z 01020KT 10/08 A3001 RMK A01 T01030080  RH  086%=      5-min Rain = 0
KWOS 040809Z 01020KT 10/08 A3001 RMK A01 T01030079  RH  085%=      5-min Rain = 0
KWOS 040810Z 00019G24KT 10/08 A3001 RMK A01 T01030080  RH  085%=      5-min Rain = 0
KWOS 040811Z 00020KT 10/08 A3001 RMK A01 T01030080  RH  085%=      5-min Rain = 0
KWOS 040812Z 01017KT 10/08 A3001 RMK A01 T01030081  RH  086%=      5-min Rain = 0
KWOS 040813Z 01018KT 10/08 A3001 RMK A01 T01030081  RH  086%=      5-min Rain = 0
KWOS 040814Z 01015KT 10/08 A3001 RMK A01 T01030081  RH  086%=      5-min Rain = 0
KWOS 040815Z 01014KT 10/08 A3001 RMK A01 T01030082  RH  087%=      5-min Rain = 0
KWOS 040816Z 01013KT 10/08 A3001 RMK A01 T01030083  RH  088%=      5-min Rain = 0
KWOS 040817Z 01012KT 10/08 A3001 RMK A01 T01020083  RH  088%=      5-min Rain = 0
KWOS 040818Z 01014KT 10/08 A3001 RMK A01 T01020083  RH  088%=      5-min Rain = 0
KWOS 040819Z 02012KT 10/08 A3001 RMK A01 T01020083  RH  088%=      5-min Rain = 0
KWOS 040820Z 01013KT 10/08 A3001 RMK A01 T01020083  RH  088%=      5-min Rain = 0
KWOS 040821Z 01012KT 10/08 A3001 RMK A01 T01020083  RH  088%=      5-min Rain = 0
KWOS 040822Z 01013KT 10/08 A3001 RMK A01 T01020083  RH  088%=      5-min Rain = 0
KWOS 040823Z 02012KT 10/08 A3002 RMK A01 T01030083  RH  088%=      5-min Rain = 0
KWOS 040824Z 02014KT 10/08 A3002 RMK A01 T01030083  RH  087%=      5-min Rain = 0
KWOS 040825Z 01012KT 10/08 A3002 RMK A01 T01030082  RH  087%=      5-min Rain = 0
KWOS 040826Z 01016G21KT 10/08 A3002 RMK A01 T01030083  RH  088%=      5-min Rain = 0
KWOS 040827Z 01017KT 10/08 A3002 RMK A01 T01030082  RH  087%=      5-min Rain = 0
KWOS 040828Z 01013KT 10/08 A3002 RMK A01 T01030080  RH  086%=      5-min Rain = 0
KWOS 040829Z 01014KT 10/08 A3002 RMK A01 T01030080  RH  085%=      5-min Rain = 0
KWOS 040830Z 01015G20KT 10/08 A3003 RMK A01 T01030080  RH  086%=      5-min Rain = 0
KWOS 040831Z 00012KT 10/08 A3003 RMK A01 T01030081  RH  086%=      5-min Rain = 0
KWOS 040832Z 00014KT 10/08 A3003 RMK A01 T01030082  RH  087%=      5-min Rain = 0
KWOS 040833Z 01015KT 10/08 A3003 RMK A01 T01030082  RH  086%=      5-min Rain = 0
KWOS 040834Z 02014KT 10/08 A3003 RMK A01 T01030081  RH  086%=      5-min Rain = 0
KWOS 040835Z 01015KT 10/08 A3003 RMK A01 T01030081  RH  086%=      5-min Rain = 0
KWOS 040836Z 01016KT 10/08 A3003 RMK A01 T01030082  RH  087%=      5-min Rain = 0
KWOS 040837Z 01016KT 10/08 A3003 RMK A01 T01030082  RH  087%=      5-min Rain = 0
KWOS 040838Z 01015KT 10/08 A3003 RMK A01 T01030082  RH  086%=      5-min Rain = 0
KWOS 040839Z 01013KT 10/08 A3003 RMK A01 T01030082  RH  087%=      5-min Rain = 0
KWOS 040840Z 02015KT 10/08 A3003 RMK A01 T01030082  RH  087%=      5-min Rain = 0
KWOS 040841Z 01018G23KT 10/08 A3003 RMK A01 T01030079  RH  085%=      5-min Rain = 0
KWOS 040842Z 01017KT 10/08 A3003 RMK A01 T01030078  RH  084%=      5-min Rain = 0
KWOS 040843Z 01018KT 10/08 A3003 RMK A01 T01030079  RH  085%=      5-min Rain = 0
KWOS 040844Z 01015KT 10/08 A3003 RMK A01 T01030079  RH  085%=      5-min Rain = 0
KWOS 040845Z 01015KT 10/08 A3003 RMK A01 T01030080  RH  085%=      5-min Rain = 0
KWOS 040846Z 01020G25KT 10/08 A3003 RMK A01 T01030079  RH  085%=      5-min Rain = 0
KWOS 040847Z 01018KT 10/08 A3002 RMK A01 T01030077  RH  084%=      5-min Rain = 0
KWOS 040848Z 02019KT 10/08 A3002 RMK A01 T01030077  RH  084%=      5-min Rain = 0
KWOS 040849Z 01018G23KT 10/08 A3002 RMK A01 T01030077  RH  084%=      5-min Rain = 0
KWOS 040850Z 01019KT 10/08 A3002 RMK A01 T01030077  RH  084%=      5-min Rain = 0
KWOS 040851Z 02019G25KT 10/08 A3002 RMK A01 T01030077  RH  084%=      5-min Rain = 0
KWOS 040852Z 02019G24KT 10/08 A3002 RMK A01 T01030077  RH  084%=      5-min Rain = 0
KWOS 040853Z 02019G25KT 10/08 A3002 RMK A01 T01030077  RH  084%=      5-min Rain = 0
KWOS 040854Z 01020G25KT 10/08 A3002 RMK A01 T01020077  RH  084%=      5-min Rain = 0
KWOS 040855Z 01017KT 10/08 A3002 RMK A01 T01020076  RH  084%=      5-min Rain = 0
KWOS 040856Z 02018KT 10/08 A3002 RMK A01 T01020077  RH  084%=      5-min Rain = 0
KWOS 040857Z 01016KT 10/08 A3002 RMK A01 T01020078  RH  085%=      5-min Rain = 0
KWOS 040858Z 02018KT 10/08 A3002 RMK A01 T01020078  RH  085%=      5-min Rain = 0
KWOS 040859Z 01016KT 10/08 A3002 RMK A01 T01020078  RH  085%=      5-min Rain = 0
KWOS 040900Z 01018KT 10/08 A3002 RMK A01 T01020078  RH  085%=      5-min Rain = 0
KWOS 040901Z 01015KT 10/08 A3002 RMK A01 T01020078  RH  085%=      5-min Rain = 0
KWOS 040902Z 01015KT 10/08 A3002 RMK A01 T01020078  RH  085%=      5-min Rain = 0
KWOS 040903Z 02015KT 10/08 A3002 RMK A01 T01020079  RH  086%=      5-min Rain = 0
KWOS 040904Z 02015KT 10/08 A3003 RMK A01 T01020079  RH  085%=      5-min Rain = 0
KWOS 040905Z 02015KT 10/08 A3003 RMK A01 T01020078  RH  085%=      5-min Rain = 0
KWOS 040906Z 02014KT 10/08 A3003 RMK A01 T01020079  RH  085%=      5-min Rain = 0
KWOS 040907Z 02014KT 10/08 A3003 RMK A01 T01010079  RH  086%=      5-min Rain = 0
KWOS 040908Z 02014KT 10/08 A3003 RMK A01 T01020079  RH  086%=      5-min Rain = 0
KWOS 040909Z 02012KT 10/08 A3003 RMK A01 T01010079  RH  086%=      5-min Rain = 0
KWOS 040910Z 02014KT 10/08 A3003 RMK A01 T01010080  RH  087%=      5-min Rain = 0
KWOS 040911Z 02013KT 10/08 A3003 RMK A01 T01010079  RH  087%=      5-min Rain = 0
KWOS 040912Z 02013KT 10/08 A3003 RMK A01 T01010079  RH  087%=      5-min Rain = 0
KWOS 040913Z 02012KT 10/08 A3003 RMK A01 T01010079  RH  087%=      5-min Rain = 0
KWOS 040914Z 02014KT 10/08 A3003 RMK A01 T01010079  RH  087%=      5-min Rain = 0
KWOS 040915Z 02016KT 10/08 A3002 RMK A01 T01010079  RH  086%=      5-min Rain = 0
KWOS 040916Z 02015G20KT 10/08 A3002 RMK A01 T01010078  RH  086%=      5-min Rain = 0
KWOS 040917Z 02017G22KT 10/08 A3002 RMK A01 T01010078  RH  086%=      5-min Rain = 0
KWOS 040918Z 02015KT 10/08 A3002 RMK A01 T01010077  RH  085%=      5-min Rain = 0
KWOS 040919Z 03013KT 10/08 A3002 RMK A01 T01010078  RH  086%=      5-min Rain = 0
KWOS 040920Z 03016KT 10/08 A3002 RMK A01 T01010079  RH  086%=      5-min Rain = 0
KWOS 040921Z 02014KT 10/08 A3002 RMK A01 T01010079  RH  086%=      5-min Rain = 0
KWOS 040922Z 02014KT 10/08 A3002 RMK A01 T01010079  RH  086%=      5-min Rain = 0
KWOS 040923Z 02016G21KT 10/08 A3003 RMK A01 T01010079  RH  086%=      5-min Rain = 0
KWOS 040924Z 03014KT 10/08 A3003 RMK A01 T01010078  RH  086%=      5-min Rain = 0
KWOS 040925Z 03012KT 10/08 A3003 RMK A01 T01010078  RH  086%=      5-min Rain = 0
KWOS 040926Z 03012KT 10/08 A3003 RMK A01 T01010079  RH  086%=      5-min Rain = 0
KWOS 040927Z 03012KT 10/08 A3003 RMK A01 T01000079  RH  087%=      5-min Rain = 0
KWOS 040928Z 02011KT 10/08 A3003 RMK A01 T01000078  RH  086%=      5-min Rain = 0
KWOS 040929Z 02011KT 10/08 A3004 RMK A01 T01000079  RH  087%=      5-min Rain = 0
KWOS 040930Z 02013KT 10/08 A3004 RMK A01 T01000080  RH  087%=      5-min Rain = 0
KWOS 040931Z 02011KT 10/08 A3004 RMK A01 T01000079  RH  087%=      5-min Rain = 0
KWOS 040932Z 02010KT 10/08 A3004 RMK A01 T01000079  RH  087%=      5-min Rain = 0
KWOS 040933Z 02009KT 10/08 A3004 RMK A01 T01000080  RH  087%=      5-min Rain = 0
KWOS 040934Z 02012KT 10/08 A3004 RMK A01 T01000080  RH  088%=      5-min Rain = 0
KWOS 040935Z 03012KT 10/08 A3004 RMK A01 T01000079  RH  087%=      5-min Rain = 0
KWOS 040936Z 02012KT 10/08 A3003 RMK A01 T01000079  RH  087%=      5-min Rain = 0
KWOS 040937Z 03014KT 10/08 A3003 RMK A01 T01000079  RH  087%=      5-min Rain = 0
KWOS 040938Z 03012KT 10/08 A3003 RMK A01 T01000079  RH  087%=      5-min Rain = 0
KWOS 040939Z 02012KT 10/08 A3003 RMK A01 T01000079  RH  087%=      5-min Rain = 0
KWOS 040940Z 01012G19KT 10/08 A3004 RMK A01 T01000079  RH  087%=      5-min Rain = 0
KWOS 040941Z 01014KT 10/08 A3004 RMK A01 T01000079  RH  087%=      5-min Rain = 0
KWOS 040942Z 02014G19KT 10/08 A3004 RMK A01 T01000078  RH  086%=      5-min Rain = 0
KWOS 040943Z 01014KT 10/08 A3004 RMK A01 T01000078  RH  086%=      5-min Rain = 0
KWOS 040944Z 01013KT 10/08 A3004 RMK A01 T01000079  RH  087%=      5-min Rain = 0
KWOS 040945Z 01011KT 10/08 A3004 RMK A01 T01000079  RH  087%=      5-min Rain = 0
KWOS 040946Z 02014G20KT 10/08 A3004 RMK A01 T01000080  RH  088%=      5-min Rain = 0
KWOS 040947Z 02016G22KT 10/08 A3004 RMK A01 T01000079  RH  087%=      5-min Rain = 0
KWOS 040948Z 02019KT 10/08 A3004 RMK A01 T01000077  RH  086%=      5-min Rain = 0
KWOS 040949Z 02015KT 10/08 A3004 RMK A01 T01000076  RH  085%=      5-min Rain = 0
KWOS 040950Z 01020KT 10/08 A3004 RMK A01 T01000076  RH  085%=      5-min Rain = 0
KWOS 040951Z 01019G24KT 10/08 A3004 RMK A01 T01000075  RH  084%=      5-min Rain = 0
KWOS 040952Z 01018KT 10/08 A3004 RMK A01 T01000075  RH  084%=      5-min Rain = 0
KWOS 040953Z 01017KT 10/08 A3004 RMK A01 T01000076  RH  085%=      5-min Rain = 0
KWOS 040954Z 02017G22KT 10/08 A3004 RMK A01 T01000077  RH  086%=      5-min Rain = 0
KWOS 040955Z 02019KT 10/08 A3004 RMK A01 T01000077  RH  086%=      5-min Rain = 0
KWOS 040956Z 02017KT 10/08 A3004 RMK A01 T01000077  RH  086%=      5-min Rain = 0
KWOS 040957Z 02019G24KT 10/08 A3004 RMK A01 T01000077  RH  086%=      5-min Rain = 0
KWOS 040958Z 02015KT 10/08 A3004 RMK A01 T01000077  RH  086%=      5-min Rain = 0
KWOS 040959Z 02018G23KT 10/08 A3004 RMK A01 T00990078  RH  086%=      5-min Rain = 0
KWOS 041000Z 01017G23KT 10/08 A3004 RMK A01 T00990078  RH  086%=      5-min Rain = 0
KWOS 041001Z 01018KT 10/08 A3004 RMK A01 T00990077  RH  086%=      5-min Rain = 0
KWOS 041002Z 01016KT 10/08 A3004 RMK A01 T00990076  RH  086%=      5-min Rain = 0
KWOS 041003Z 01020KT 10/08 A3004 RMK A01 T00990076  RH  085%=      5-min Rain = 0
KWOS 041004Z 01018KT 10/07 A3004 RMK A01 T00990074  RH  084%=      5-min Rain = 0
KWOS 041005Z 01016G23KT 10/07 A3004 RMK A01 T00990073  RH  084%=      5-min Rain = 0
KWOS 041006Z 00016G22KT 10/07 A3005 RMK A01 T00990072  RH  084%=      5-min Rain = 0
KWOS 041007Z 00018KT 10/07 A3005 RMK A01 T00990072  RH  084%=      5-min Rain = 0
KWOS 041008Z 01018G24KT 10/07 A3005 RMK A01 T00980072  RH  083%=      5-min Rain = 0
KWOS 041009Z 01019KT 10/07 A3005 RMK A01 T00980071  RH  083%=      5-min Rain = 0
KWOS 041010Z 01018G23KT 10/07 A3005 RMK A01 T00970070  RH  083%=      5-min Rain = 0
KWOS 041011Z 01019KT 10/07 A3005 RMK A01 T00970070  RH  083%=      5-min Rain = 0
KWOS 041012Z 01017G22KT 10/07 A3005 RMK A01 T00970070  RH  083%=      5-min Rain = 0
KWOS 041013Z 01015KT 10/07 A3005 RMK A01 T00970070  RH  083%=      5-min Rain = 0
KWOS 041014Z 01016KT 10/07 A3005 RMK A01 T00970071  RH  084%=      5-min Rain = 0
KWOS 041015Z 01015G20KT 10/07 A3005 RMK A01 T00970071  RH  084%=      5-min Rain = 0
KWOS 041016Z 01016KT 10/07 A3005 RMK A01 T00970072  RH  084%=      5-min Rain = 0
KWOS 041017Z 01016G21KT 10/07 A3005 RMK A01 T00960071  RH  084%=      5-min Rain = 0
KWOS 041018Z 01014KT 10/07 A3005 RMK A01 T00970071  RH  084%=      5-min Rain = 0
KWOS 041019Z 01014KT 10/07 A3005 RMK A01 T00970072  RH  085%=      5-min Rain = 0
KWOS 041020Z 01013KT 10/07 A3005 RMK A01 T00970073  RH  085%=      5-min Rain = 0
KWOS 041021Z 01012KT 10/07 A3005 RMK A01 T00970073  RH  085%=      5-min Rain = 0
KWOS 041022Z 01012KT 10/07 A3005 RMK A01 T00960074  RH  086%=      5-min Rain = 0
KWOS 041023Z 01015KT 10/07 A3005 RMK A01 T00960074  RH  086%=      5-min Rain = 0
KWOS 041024Z 01015KT 10/07 A3005 RMK A01 T00960074  RH  086%=      5-min Rain = 0
KWOS 041025Z 01018G23KT 10/07 A3005 RMK A01 T00960073  RH  085%=      5-min Rain = 0
KWOS 041026Z 00020G25KT 10/07 A3006 RMK A01 T00960071  RH  084%=      5-min Rain = 0
KWOS 041027Z 00018KT 10/07 A3006 RMK A01 T00960070  RH  084%=      5-min Rain = 0
KWOS 041028Z 01021KT 10/07 A3006 RMK A01 T00960070  RH  084%=      5-min Rain = 0
KWOS 041029Z 00020KT 10/07 A3006 RMK A01 T00960070  RH  083%=      5-min Rain = 0
KWOS 041030Z 01020G25KT 10/07 A3006 RMK A01 T00970070  RH  083%=      5-min Rain = 0
KWOS 041031Z 01021KT 10/07 A3006 RMK A01 T00960070  RH  084%=      5-min Rain = 0
KWOS 041032Z 01018KT 10/07 A3006 RMK A01 T00960070  RH  084%=      5-min Rain = 0
KWOS 041033Z 01020G25KT 10/07 A3006 RMK A01 T00960070  RH  084%=      5-min Rain = 0
KWOS 041034Z 01017KT 10/07 A3006 RMK A01 T00960070  RH  084%=      5-min Rain = 0
KWOS 041035Z 01022G28KT 10/07 A3006 RMK A01 T00960070  RH  084%=      5-min Rain = 0
KWOS 041036Z 01019KT 10/07 A3006 RMK A01 T00960069  RH  084%=      5-min Rain = 0
KWOS 041037Z 02021KT 10/07 A3006 RMK A01 T00950070  RH  084%=      5-min Rain = 0
KWOS 041038Z 02020G27KT 10/07 A3006 RMK A01 T00950069  RH  084%=      5-min Rain = 0
KWOS 041039Z 01023KT 10/07 A3006 RMK A01 T00950068  RH  083%=      5-min Rain = 0
KWOS 041040Z 02022KT 10/07 A3006 RMK A01 T00950067  RH  083%=      5-min Rain = 0
KWOS 041041Z 02022G27KT 10/07 A3007 RMK A01 T00950067  RH  083%=      5-min Rain = 0
KWOS 041042Z 02022KT 10/07 A3007 RMK A01 T00950068  RH  083%=      5-min Rain = 0
KWOS 041043Z 02018KT 10/07 A3007 RMK A01 T00950067  RH  083%=      5-min Rain = 0
KWOS 041044Z 02017G23KT 10/07 A3007 RMK A01 T00950068  RH  084%=      5-min Rain = 0
KWOS 041045Z 01014KT 10/07 A3007 RMK A01 T00950069  RH  084%=      5-min Rain = 0
KWOS 041046Z 01016G23KT 09/07 A3007 RMK A01 T00940070  RH  085%=      5-min Rain = 0
KWOS 041047Z 01018G24KT 09/07 A3007 RMK A01 T00940070  RH  085%=      5-min Rain = 0
KWOS 041048Z 01019KT 09/07 A3008 RMK A01 T00940069  RH  084%=      5-min Rain = 0
KWOS 041049Z 02018G24KT 09/07 A3008 RMK A01 T00940068  RH  084%=      5-min Rain = 0
KWOS 041050Z 02016KT 09/07 A3008 RMK A01 T00940068  RH  084%=      5-min Rain = 0
KWOS 041051Z 02014KT 10/07 A3008 RMK A01 T00950069  RH  084%=      5-min Rain = 0
KWOS 041052Z 01017KT 10/07 A3008 RMK A01 T00950069  RH  084%=      5-min Rain = 0
KWOS 041053Z 02016KT 10/07 A3008 RMK A01 T00950069  RH  084%=      5-min Rain = 0
KWOS 041054Z 02012KT 10/07 A3008 RMK A01 T00950069  RH  084%=      5-min Rain = 0
KWOS 041055Z 02014KT 10/07 A3008 RMK A01 T00950070  RH  085%=      5-min Rain = 0
KWOS 041056Z 02017G23KT 10/07 A3008 RMK A01 T00950070  RH  084%=      5-min Rain = 0
KWOS 041057Z 02019G24KT 10/07 A3008 RMK A01 T00950068  RH  083%=      5-min Rain = 0
KWOS 041058Z 01016KT 10/07 A3008 RMK A01 T00950068  RH  083%=      5-min Rain = 0
KWOS 041059Z 01017G23KT 10/07 A3008 RMK A01 T00950069  RH  084%=      5-min Rain = 0
KWOS 041100Z 01020G25KT 10/07 A3008 RMK A01 T00950069  RH  084%=      5-min Rain = 0
KWOS 041101Z 01017G22KT 10/07 A3008 RMK A01 T00950068  RH  083%=      5-min Rain = 0
KWOS 041102Z 01015KT 10/07 A3008 RMK A01 T00950069  RH  084%=      5-min Rain = 0
KWOS 041103Z 01016KT 10/07 A3008 RMK A01 T00950070  RH  084%=      5-min Rain = 0
KWOS 041104Z 01017KT 10/07 A3008 RMK A01 T00950070  RH  084%=      5-min Rain = 0
KWOS 041105Z 00015KT 10/07 A3008 RMK A01 T00950069  RH  084%=      5-min Rain = 0
KWOS 041106Z 01014G19KT 10/07 A3008 RMK A01 T00950069  RH  084%=      5-min Rain = 0
KWOS 041107Z 01015KT 10/07 A3008 RMK A01 T00950070  RH  085%=      5-min Rain = 0
KWOS 041108Z 01017G23KT 10/07 A3009 RMK A01 T00950070  RH  084%=      5-min Rain = 0
KWOS 041109Z 01018KT 10/07 A3009 RMK A01 T00950069  RH  084%=      5-min Rain = 0
KWOS 041110Z 01016KT 10/07 A3009 RMK A01 T00950069  RH  084%=      5-min Rain = 0
KWOS 041111Z 01017KT 10/07 A3009 RMK A01 T00950070  RH  084%=      5-min Rain = 0
KWOS 041112Z 02015G20KT 10/07 A3009 RMK A01 T00950069  RH  084%=      5-min Rain = 0
KWOS 041113Z 01016KT 10/07 A3009 RMK A01 T00950069  RH  084%=      5-min Rain = 0
KWOS 041114Z 01016KT 10/07 A3009 RMK A01 T00950069  RH  084%=      5-min Rain = 0
KWOS 041115Z 01013KT 10/07 A3009 RMK A01 T00950070  RH  084%=      5-min Rain = 0
KWOS 041116Z 01014G19KT 10/07 A3009 RMK A01 T00950070  RH  084%=      5-min Rain = 0
KWOS 041117Z 01015KT 10/07 A3009 RMK A01 T00950070  RH  085%=      5-min Rain = 0
KWOS 041118Z 02016KT 10/07 A3009 RMK A01 T00950069  RH  084%=      5-min Rain = 0
KWOS 041119Z 02015G20KT 10/07 A3009 RMK A01 T00950068  RH  084%=      5-min Rain = 0
KWOS 041120Z 02014KT 10/07 A3009 RMK A01 T00950068  RH  083%=      5-min Rain = 0
KWOS 041121Z 02017KT 10/07 A3009 RMK A01 T00950069  RH  084%=      5-min Rain = 0
KWOS 041122Z 02016KT 10/07 A3009 RMK A01 T00950068  RH  084%=      5-min Rain = 0
KWOS 041123Z 02015KT 10/07 A3009 RMK A01 T00950069  RH  084%=      5-min Rain = 0
KWOS 041124Z 02017KT 10/07 A3009 RMK A01 T00950069  RH  084%=      5-min Rain = 0
KWOS 041125Z 01017KT 10/07 A3009 RMK A01 T00950068  RH  083%=      5-min Rain = 0
KWOS 041126Z 01016KT 10/07 A3009 RMK A01 T00950068  RH  083%=      5-min Rain = 0
KWOS 041127Z 02016KT 10/07 A3009 RMK A01 T00950069  RH  084%=      5-min Rain = 0
KWOS 041128Z 01014KT 10/07 A3009 RMK A01 T00950069  RH  084%=      5-min Rain = 0
KWOS 041129Z 01013KT 10/07 A3009 RMK A01 T00950070  RH  084%=      5-min Rain = 0
KWOS 041130Z 01018KT 10/07 A3009 RMK A01 T00950070  RH  084%=      5-min Rain = 0
KWOS 041131Z 01016KT 10/07 A3009 RMK A01 T00950069  RH  084%=      5-min Rain = 0
KWOS 041132Z 01016KT 10/07 A3009 RMK A01 T00950069  RH  084%=      5-min Rain = 0
KWOS 041133Z 01016KT 10/07 A3009 RMK A01 T00950069  RH  084%=      5-min Rain = 0
KWOS 041134Z 01016KT 10/07 A3009 RMK A01 T00950069  RH  084%=      5-min Rain = 0
KWOS 041135Z 01014KT 10/07 A3009 RMK A01 T00950070  RH  084%=      5-min Rain = 0
KWOS 041136Z 01014KT 10/07 A3009 RMK A01 T00950071  RH  085%=      5-min Rain = 0
KWOS 041137Z 01014KT 10/07 A3009 RMK A01 T00950071  RH  085%=      5-min Rain = 0
KWOS 041138Z 01016KT 10/07 A3009 RMK A01 T00950071  RH  085%=      5-min Rain = 0
KWOS 041139Z 01015KT 10/07 A3009 RMK A01 T00950070  RH  084%=      5-min Rain = 0
KWOS 041140Z 00014KT 10/07 A3009 RMK A01 T00950070  RH  084%=      5-min Rain = 0
KWOS 041141Z 01014KT 10/07 A3009 RMK A01 T00950070  RH  084%=      5-min Rain = 0
KWOS 041142Z 01015KT 10/07 A3009 RMK A01 T00950070  RH  084%=      5-min Rain = 0
KWOS 041143Z 01015G20KT 10/07 A3009 RMK A01 T00950070  RH  084%=      5-min Rain = 0
KWOS 041144Z 01016KT 10/07 A3009 RMK A01 T00950070  RH  084%=      5-min Rain = 0
KWOS 041145Z 01015KT 10/07 A3009 RMK A01 T00950069  RH  084%=      5-min Rain = 0
KWOS 041146Z 00013KT 10/07 A3009 RMK A01 T00960069  RH  083%=      5-min Rain = 0
KWOS 041147Z 01012KT 10/07 A301 RMK A01 T00960069  RH  084%=      5-min Rain = 0
KWOS 041148Z 01013KT 10/07 A3009 RMK A01 T00960070  RH  084%=      5-min Rain = 0
KWOS 041149Z 00014G19KT 10/07 A301 RMK A01 T00960070  RH  084%=      5-min Rain = 0
KWOS 041150Z 00013KT 10/07 A301 RMK A01 T00960069  RH  084%=      5-min Rain = 0
KWOS 041151Z 00013KT 10/07 A301 RMK A01 T00960070  RH  084%=      5-min Rain = 0
KWOS 041152Z 01016KT 10/07 A301 RMK A01 T00960070  RH  084%=      5-min Rain = 0
KWOS 041153Z 01014KT 10/07 A301 RMK A01 T00960069  RH  084%=      5-min Rain = 0
KWOS 041154Z 01014KT 10/07 A301 RMK A01 T00960069  RH  084%=      5-min Rain = 0
KWOS 041155Z 01015KT 10/07 A301 RMK A01 T00960070  RH  084%=      5-min Rain = 0
KWOS 041156Z 01014G19KT 10/07 A301 RMK A01 T00960070  RH  084%=      5-min Rain = 0
KWOS 041157Z 01014KT 10/07 A301 RMK A01 T00960070  RH  084%=      5-min Rain = 0
KWOS 041158Z 01016G21KT 10/07 A301 RMK A01 T00960070  RH  084%=      5-min Rain = 0
KWOS 041159Z 01016KT 10/07 A301 RMK A01 T00960069  RH  084%=      5-min Rain = 0
KWOS 041200Z 01016KT 10/07 A301 RMK A01 T00960069  RH  084%=      5-min Rain = 0
KWOS 041201Z 01015KT 10/07 A301 RMK A01 T00960069  RH  083%=      5-min Rain = 0
KWOS 041202Z 00013KT 10/07 A301 RMK A01 T00960069  RH  084%=      5-min Rain = 0
KWOS 041203Z 00013KT 10/07 A301 RMK A01 T00960070  RH  084%=      5-min Rain = 0
KWOS 041204Z 01015KT 10/07 A3011 RMK A01 T00960070  RH  084%=      5-min Rain = 0
KWOS 041205Z 01014KT 10/07 A3011 RMK A01 T00960069  RH  083%=      5-min Rain = 0
KWOS 041206Z 01014KT 10/07 A3011 RMK A01 T00960068  RH  083%=      5-min Rain = 0
KWOS 041207Z 01015KT 10/07 A3011 RMK A01 T00960068  RH  083%=      5-min Rain = 0
KWOS 041208Z 00016KT 10/07 A3011 RMK A01 T00960068  RH  083%=      5-min Rain = 0
KWOS 041209Z 01015KT 10/07 A3011 RMK A01 T00960067  RH  082%=      5-min Rain = 0
KWOS 041210Z 02015KT 10/07 A3011 RMK A01 T00960067  RH  082%=      5-min Rain = 0
KWOS 041211Z 01012KT 10/07 A3011 RMK A01 T00960068  RH  082%=      5-min Rain = 0
KWOS 041212Z 01012KT 10/07 A3011 RMK A01 T00960069  RH  083%=      5-min Rain = 0
KWOS 041213Z 01013KT 10/07 A3011 RMK A01 T00960068  RH  083%=      5-min Rain = 0
KWOS 041214Z 00014KT 10/07 A3011 RMK A01 T00960068  RH  083%=      5-min Rain = 0
KWOS 041215Z 01013G22KT 10/07 A3011 RMK A01 T00960068  RH  082%=      5-min Rain = 0
KWOS 041216Z 01015G20KT 10/07 A3011 RMK A01 T00960067  RH  082%=      5-min Rain = 0
KWOS 041217Z 01013KT 10/07 A3012 RMK A01 T00960068  RH  082%=      5-min Rain = 0
KWOS 041218Z 01013KT 10/07 A3012 RMK A01 T00960068  RH  082%=      5-min Rain = 0
KWOS 041219Z 01016KT 10/07 A3012 RMK A01 T00960068  RH  083%=      5-min Rain = 0
KWOS 041220Z 01015KT 10/07 A3012 RMK A01 T00960067  RH  082%=      5-min Rain = 0
KWOS 041221Z 01013KT 10/07 A3012 RMK A01 T00960067  RH  082%=      5-min Rain = 0
KWOS 041222Z 01016KT 10/07 A3012 RMK A01 T00960067  RH  082%=      5-min Rain = 0
KWOS 041223Z 01015KT 10/07 A3012 RMK A01 T00960067  RH  082%=      5-min Rain = 0
KWOS 041224Z 01015KT 10/07 A3012 RMK A01 T00960067  RH  082%=      5-min Rain = 0
KWOS 041225Z 01014KT 10/07 A3012 RMK A01 T00970067  RH  082%=      5-min Rain = 0
KWOS 041226Z 01014KT 10/07 A3012 RMK A01 T00960067  RH  082%=      5-min Rain = 0
KWOS 041227Z 01013KT 10/07 A3012 RMK A01 T00960068  RH  082%=      5-min Rain = 0
KWOS 041228Z 01013KT 10/07 A3012 RMK A01 T00960068  RH  083%=      5-min Rain = 0
KWOS 041229Z 01014KT 10/07 A3012 RMK A01 T00960068  RH  083%=      5-min Rain = 0
KWOS 041230Z 01013KT 10/07 A3012 RMK A01 T00970068  RH  082%=      5-min Rain = 0
KWOS 041231Z 00012KT 10/07 A3013 RMK A01 T00960068  RH  082%=      5-min Rain = 0
KWOS 041232Z 00013KT 10/07 A3013 RMK A01 T00960068  RH  082%=      5-min Rain = 0
KWOS 041233Z 01011KT 10/07 A3013 RMK A01 T00970068  RH  082%=      5-min Rain = 0
KWOS 041234Z 00011KT 10/07 A3013 RMK A01 T00960069  RH  083%=      5-min Rain = 0
KWOS 041235Z 01011KT 10/07 A3013 RMK A01 T00960069  RH  083%=      5-min Rain = 0
KWOS 041236Z 01011KT 10/07 A3013 RMK A01 T00960070  RH  083%=      5-min Rain = 0
KWOS 041237Z 36012KT 10/07 A3013 RMK A01 T00960069  RH  083%=      5-min Rain = 0
KWOS 041238Z 00011KT 10/07 A3013 RMK A01 T00970069  RH  083%=      5-min Rain = 0
KWOS 041239Z 36012KT 10/07 A3013 RMK A01 T00970070  RH  083%=      5-min Rain = 0
KWOS 041240Z 00013KT 10/07 A3013 RMK A01 T00970069  RH  083%=      5-min Rain = 0
KWOS 041241Z 00013KT 10/07 A3013 RMK A01 T00970069  RH  083%=      5-min Rain = 0
KWOS 041242Z 00012KT 10/07 A3013 RMK A01 T00970068  RH  082%=      5-min Rain = 0
KWOS 041243Z 00014KT 10/07 A3013 RMK A01 T00970069  RH  083%=      5-min Rain = 0
KWOS 041244Z 00010KT 10/07 A3013 RMK A01 T00970068  RH  082%=      5-min Rain = 0
KWOS 041245Z 36011KT 10/07 A3013 RMK A01 T00970070  RH  083%=      5-min Rain = 0
KWOS 041246Z 36012KT 10/07 A3013 RMK A01 T00970070  RH  083%=      5-min Rain = 0
KWOS 041247Z 36013KT 10/07 A3013 RMK A01 T00970070  RH  083%=      5-min Rain = 0
KWOS 041248Z 36014KT 10/07 A3013 RMK A01 T00980069  RH  082%=      5-min Rain = 0
KWOS 041249Z 36011KT 10/07 A3013 RMK A01 T00980069  RH  082%=      5-min Rain = 0
KWOS 041250Z 00011KT 10/07 A3013 RMK A01 T00980070  RH  083%=      5-min Rain = 0
KWOS 041251Z 36011G16KT 10/07 A3013 RMK A01 T00980072  RH  084%=      5-min Rain = 0
KWOS 041252Z 36013KT 10/07 A3013 RMK A01 T00980071  RH  083%=      5-min Rain = 0
KWOS 041253Z 36016KT 10/07 A3013 RMK A01 T00980069  RH  082%=      5-min Rain = 0
KWOS 041254Z 36016KT 10/07 A3013 RMK A01 T00980067  RH  081%=      5-min Rain = 0
KWOS 041255Z 00013KT 10/07 A3013 RMK A01 T00990067  RH  081%=      5-min Rain = 0
KWOS 041256Z 00013KT 10/07 A3013 RMK A01 T00990069  RH  082%=      5-min Rain = 0
KWOS 041257Z 36013KT 10/07 A3013 RMK A01 T00990069  RH  082%=      5-min Rain = 0
KWOS 041258Z 00012KT 10/07 A3013 RMK A01 T00990068  RH  081%=      5-min Rain = 0
KWOS 041259Z 00014KT 10/07 A3013 RMK A01 T00990069  RH  082%=      5-min Rain = 0
KWOS 041300Z 35014KT 10/07 A3013 RMK A01 T00990069  RH  081%=      5-min Rain = 0
KWOS 041301Z 36015KT 10/07 A3013 RMK A01 T00990069  RH  081%=      5-min Rain = 0
KWOS 041302Z 36014KT 10/07 A3013 RMK A01 T01000068  RH  081%=      5-min Rain = 0
KWOS 041303Z 36014KT 10/07 A3014 RMK A01 T01000069  RH  081%=      5-min Rain = 0
KWOS 041304Z 36016KT 10/07 A3014 RMK A01 T01000067  RH  080%=      5-min Rain = 0
KWOS 041305Z 36016KT 10/07 A3014 RMK A01 T01000066  RH  080%=      5-min Rain = 0
KWOS 041306Z 00016KT 10/07 A3014 RMK A01 T01000066  RH  079%=      5-min Rain = 0
KWOS 041307Z 00015KT 10/07 A3014 RMK A01 T01000066  RH  080%=      5-min Rain = 0
KWOS 041308Z 00013KT 10/07 A3014 RMK A01 T01000067  RH  080%=      5-min Rain = 0
KWOS 041309Z 00013KT 10/07 A3014 RMK A01 T01000067  RH  080%=      5-min Rain = 0
KWOS 041310Z 36012KT 10/07 A3014 RMK A01 T01000067  RH  080%=      5-min Rain = 0
KWOS 041311Z 36014KT 10/07 A3014 RMK A01 T01010069  RH  081%=      5-min Rain = 0
KWOS 041312Z 36014KT 10/07 A3014 RMK A01 T01010067  RH  080%=      5-min Rain = 0
KWOS 041313Z 00014KT 10/07 A3014 RMK A01 T01010069  RH  081%=      5-min Rain = 0
KWOS 041314Z 00014KT 10/07 A3014 RMK A01 T01010068  RH  080%=      5-min Rain = 0
KWOS 041315Z 36012KT 10/07 A3014 RMK A01 T01010069  RH  081%=      5-min Rain = 0
KWOS 041316Z 35011KT 10/07 A3014 RMK A01 T01010070  RH  081%=      5-min Rain = 0
KWOS 041317Z 35014KT 10/07 A3014 RMK A01 T01010070  RH  081%=      5-min Rain = 0
KWOS 041318Z 35014KT 10/07 A3014 RMK A01 T01010069  RH  080%=      5-min Rain = 0
KWOS 041319Z 35014KT 10/07 A3014 RMK A01 T01010069  RH  080%=      5-min Rain = 0
KWOS 041320Z 36013KT 10/07 A3014 RMK A01 T01010069  RH  081%=      5-min Rain = 0
KWOS 041321Z 01012G18KT 10/07 A3014 RMK A01 T01020071  RH  081%=      5-min Rain = 0
KWOS 041322Z 36013KT 10/07 A3014 RMK A01 T01020072  RH  081%=      5-min Rain = 0
KWOS 041323Z 35014KT 10/07 A3014 RMK A01 T01020071  RH  081%=      5-min Rain = 0
KWOS 041324Z 35013KT 10/07 A3014 RMK A01 T01020070  RH  081%=      5-min Rain = 0
KWOS 041325Z 34014KT 10/07 A3014 RMK A01 T01020071  RH  081%=      5-min Rain = 0
KWOS 041326Z 35014KT 10/07 A3014 RMK A01 T01020070  RH  081%=      5-min Rain = 0
KWOS 041327Z 34014KT 10/07 A3014 RMK A01 T01020070  RH  081%=      5-min Rain = 0
KWOS 041328Z 35015KT 10/07 A3014 RMK A01 T01020069  RH  080%=      5-min Rain = 0
KWOS 041329Z 35014KT 10/07 A3014 RMK A01 T01020069  RH  080%=      5-min Rain = 0
KWOS 041330Z 35013KT 10/07 A3014 RMK A01 T01020070  RH  080%=      5-min Rain = 0
KWOS 041331Z 35010KT 10/07 A3014 RMK A01 T01030072  RH  081%=      5-min Rain = 0
KWOS 041332Z 35011KT 10/07 A3014 RMK A01 T01040073  RH  081%=      5-min Rain = 0
KWOS 041333Z 35013KT 10/07 A3014 RMK A01 T01040071  RH  080%=      5-min Rain = 0
KWOS 041334Z 35013KT 10/07 A3014 RMK A01 T01040070  RH  079%=      5-min Rain = 0
KWOS 041335Z 34013KT 10/07 A3014 RMK A01 T01040071  RH  080%=      5-min Rain = 0
KWOS 041336Z 34013KT 10/07 A3014 RMK A01 T01040070  RH  079%=      5-min Rain = 0
KWOS 041337Z 35014KT 10/07 A3014 RMK A01 T01040070  RH  079%=      5-min Rain = 0
KWOS 041338Z 35014KT 11/07 A3014 RMK A01 T01050070  RH  079%=      5-min Rain = 0
KWOS 041339Z 35013KT 11/07 A3014 RMK A01 T01050068  RH  078%=      5-min Rain = 0
KWOS 041340Z 36014KT 11/07 A3014 RMK A01 T01050068  RH  078%=      5-min Rain = 0
KWOS 041341Z 36015G20KT 11/07 A3014 RMK A01 T01050069  RH  078%=      5-min Rain = 0
KWOS 041342Z 01017KT 11/07 A3014 RMK A01 T01050068  RH  078%=      5-min Rain = 0
KWOS 041343Z 01016KT 11/07 A3014 RMK A01 T01050069  RH  078%=      5-min Rain = 0
KWOS 041344Z 01014KT 11/07 A3014 RMK A01 T01060070  RH  078%=      5-min Rain = 0
KWOS 041345Z 00015KT 11/07 A3014 RMK A01 T01060069  RH  078%=      5-min Rain = 0
KWOS 041346Z 00016KT 11/07 A3014 RMK A01 T01060068  RH  077%=      5-min Rain = 0
KWOS 041347Z 01014KT 11/07 A3014 RMK A01 T01060067  RH  077%=      5-min Rain = 0
KWOS 041348Z 00014KT 11/07 A3014 RMK A01 T01060070  RH  078%=      5-min Rain = 0
KWOS 041349Z 36017KT 11/07 A3014 RMK A01 T01070071  RH  078%=      5-min Rain = 0
KWOS 041350Z 36015KT 11/07 A3014 RMK A01 T01070069  RH  077%=      5-min Rain = 0
KWOS 041351Z 36015KT 11/07 A3014 RMK A01 T01070070  RH  078%=      5-min Rain = 0
KWOS 041352Z 00015KT 11/07 A3014 RMK A01 T01070070  RH  078%=      5-min Rain = 0
KWOS 041353Z 01014KT 11/07 A3014 RMK A01 T01080069  RH  077%=      5-min Rain = 0
KWOS 041354Z 00012KT 11/07 A3014 RMK A01 T01090074  RH  079%=      5-min Rain = 0
KWOS 041355Z 00015KT 11/07 A3014 RMK A01 T01100074  RH  079%=      5-min Rain = 0
KWOS 041356Z 01014KT 11/07 A3014 RMK A01 T01110073  RH  078%=      5-min Rain = 0
KWOS 041357Z 00013KT 11/07 A3014 RMK A01 T01100073  RH  078%=      5-min Rain = 0
KWOS 041358Z 00014KT 11/07 A3014 RMK A01 T01100072  RH  077%=      5-min Rain = 0
KWOS 041359Z 01015KT 11/07 A3015 RMK A01 T01110070  RH  076%=      5-min Rain = 0
KWOS 041400Z 01013KT 11/07 A3014 RMK A01 T01110073  RH  077%=      5-min Rain = 0
KWOS 041401Z 00014KT 11/08 A3015 RMK A01 T01130078  RH  079%=      5-min Rain = 0
KWOS 041402Z 36015KT 12/08 A3015 RMK A01 T01150075  RH  076%=      5-min Rain = 0
KWOS 041403Z 36015KT 11/07 A3015 RMK A01 T01140074  RH  076%=      5-min Rain = 0
KWOS 041404Z 36016KT 11/07 A3015 RMK A01 T01140073  RH  076%=      5-min Rain = 0
KWOS 041405Z 00015KT 11/07 A3015 RMK A01 T01140074  RH  076%=      5-min Rain = 0
KWOS 041406Z 01015KT 11/07 A3015 RMK A01 T01140071  RH  075%=      5-min Rain = 0
KWOS 041407Z 01013KT 11/07 A3014 RMK A01 T01130070  RH  074%=      5-min Rain = 0
KWOS 041408Z 01015KT 11/07 A3014 RMK A01 T01140073  RH  076%=      5-min Rain = 0
KWOS 041409Z 00014KT 11/07 A3015 RMK A01 T01140070  RH  075%=      5-min Rain = 0
KWOS 041410Z 01013KT 11/07 A3014 RMK A01 T01130073  RH  076%=      5-min Rain = 0
KWOS 041411Z 00012KT 11/07 A3015 RMK A01 T01140073  RH  076%=      5-min Rain = 0
KWOS 041412Z 35012KT 11/07 A3015 RMK A01 T01140073  RH  076%=      5-min Rain = 0
KWOS 041413Z 35015KT 12/07 A3015 RMK A01 T01150074  RH  076%=      5-min Rain = 0
KWOS 041414Z 36016KT 12/07 A3015 RMK A01 T01150074  RH  076%=      5-min Rain = 0
KWOS 041415Z 35018KT 11/07 A3015 RMK A01 T01130071  RH  075%=      5-min Rain = 0
KWOS 041416Z 35016KT 11/07 A3015 RMK A01 T01110069  RH  075%=      5-min Rain = 0
KWOS 041417Z 35017KT 11/07 A3015 RMK A01 T01100070  RH  076%=      5-min Rain = 0
KWOS 041418Z 35016KT 11/07 A3015 RMK A01 T01090070  RH  077%=      5-min Rain = 0
KWOS 041419Z 35016KT 11/07 A3015 RMK A01 T01090072  RH  078%=      5-min Rain = 0
KWOS 041420Z 00016KT 11/07 A3015 RMK A01 T01100073  RH  078%=      5-min Rain = 0
KWOS 041421Z 35014KT 11/07 A3015 RMK A01 T01100073  RH  078%=      5-min Rain = 0
KWOS 041422Z 34015KT 11/08 A3015 RMK A01 T01110075  RH  078%=      5-min Rain = 0
KWOS 041423Z 36016KT 11/07 A3015 RMK A01 T01120073  RH  077%=      5-min Rain = 0
KWOS 041424Z 35017KT 11/07 A3015 RMK A01 T01110072  RH  077%=      5-min Rain = 0
KWOS 041425Z 35014KT 11/07 A3015 RMK A01 T01100070  RH  076%=      5-min Rain = 0
KWOS 041426Z 35013KT 11/07 A3015 RMK A01 T01090071  RH  077%=      5-min Rain = 0
KWOS 041427Z 35017G22KT 11/07 A3015 RMK A01 T01090071  RH  077%=      5-min Rain = 0
KWOS 041428Z 35014KT 11/07 A3015 RMK A01 T01090070  RH  077%=      5-min Rain = 0
KWOS 041429Z 34014KT 11/07 A3015 RMK A01 T01080071  RH  078%=      5-min Rain = 0
KWOS 041430Z 34016KT 11/07 A3015 RMK A01 T01090071  RH  078%=      5-min Rain = 0
KWOS 041431Z 34015KT 11/07 A3015 RMK A01 T01090071  RH  077%=      5-min Rain = 0
KWOS 041432Z 35014KT 11/07 A3016 RMK A01 T01090072  RH  078%=      5-min Rain = 0
KWOS 041433Z 35014KT 11/07 A3016 RMK A01 T01090071  RH  077%=      5-min Rain = 0
KWOS 041434Z 34012KT 11/07 A3016 RMK A01 T01090073  RH  078%=      5-min Rain = 0
KWOS 041435Z 34014KT 11/07 A3016 RMK A01 T01100071  RH  077%=      5-min Rain = 0
KWOS 041436Z 35014KT 11/07 A3016 RMK A01 T01100071  RH  077%=      5-min Rain = 0
KWOS 041437Z 35013KT 11/07 A3016 RMK A01 T01100071  RH  077%=      5-min Rain = 0
KWOS 041438Z 36013KT 11/07 A3016 RMK A01 T01100071  RH  077%=      5-min Rain = 0
KWOS 041439Z 35015KT 11/07 A3016 RMK A01 T01110069  RH  075%=      5-min Rain = 0
KWOS 041440Z 35014KT 11/07 A3016 RMK A01 T01100067  RH  075%=      5-min Rain = 0
KWOS 041441Z 36012KT 11/07 A3016 RMK A01 T01090066  RH  075%=      5-min Rain = 0
KWOS 041442Z 36014G19KT 11/07 A3016 RMK A01 T01080067  RH  075%=      5-min Rain = 0
KWOS 041443Z 36014KT 11/07 A3016 RMK A01 T01090069  RH  077%=      5-min Rain = 0
KWOS 041444Z 36013KT 11/07 A3016 RMK A01 T01090070  RH  077%=      5-min Rain = 0
KWOS 041445Z 35013KT 11/07 A3016 RMK A01 T01090071  RH  077%=      5-min Rain = 0
KWOS 041446Z 35013KT 11/07 A3016 RMK A01 T01100069  RH  076%=      5-min Rain = 0
KWOS 041447Z 35012KT 11/07 A3016 RMK A01 T01090069  RH  076%=      5-min Rain = 0
KWOS 041448Z 34014KT 11/07 A3016 RMK A01 T01100071  RH  077%=      5-min Rain = 0
KWOS 041449Z 35016KT 11/07 A3016 RMK A01 T01110071  RH  076%=      5-min Rain = 0
KWOS 041450Z 00015KT 11/07 A3016 RMK A01 T01110070  RH  076%=      5-min Rain = 0
KWOS 041451Z 00014KT 11/07 A3016 RMK A01 T01110067  RH  074%=      5-min Rain = 0
KWOS 041452Z 01011KT 11/07 A3016 RMK A01 T01110068  RH  075%=      5-min Rain = 0
KWOS 041453Z 02012KT 11/07 A3016 RMK A01 T01110071  RH  076%=      5-min Rain = 0
KWOS 041454Z 01011KT 11/07 A3016 RMK A01 T01120070  RH  076%=      5-min Rain = 0
KWOS 041455Z 00011KT 11/07 A3016 RMK A01 T01120070  RH  075%=      5-min Rain = 0
KWOS 041456Z 36014KT 11/07 A3016 RMK A01 T01120069  RH  075%=      5-min Rain = 0
KWOS 041457Z 01014KT 11/07 A3016 RMK A01 T01120069  RH  075%=      5-min Rain = 0
KWOS 041458Z 36012KT 11/07 A3016 RMK A01 T01120069  RH  075%=      5-min Rain = 0
KWOS 041459Z 36013KT 11/07 A3016 RMK A01 T01130072  RH  076%=      5-min Rain = 0
KWOS 041500Z 36012KT 11/07 A3016 RMK A01 T01130071  RH  075%=      5-min Rain = 0
KWOS 041501Z 01013KT 11/07 A3016 RMK A01 T01130070  RH  075%=      5-min Rain = 0
KWOS 041502Z 00014KT 11/07 A3016 RMK A01 T01130067  RH  073%=      5-min Rain = 0
KWOS 041503Z 36013KT 11/07 A3016 RMK A01 T01120069  RH  075%=      5-min Rain = 0
KWOS 041504Z 00012KT 11/07 A3016 RMK A01 T01140073  RH  076%=      5-min Rain = 0
KWOS 041505Z 36013KT 11/07 A3016 RMK A01 T01140069  RH  074%=      5-min Rain = 0
KWOS 041506Z 36014KT 11/07 A3016 RMK A01 T01140069  RH  074%=      5-min Rain = 0
KWOS 041507Z 35013KT 11/07 A3016 RMK A01 T01140069  RH  074%=      5-min Rain = 0
KWOS 041508Z 35013KT 11/07 A3016 RMK A01 T01140070  RH  074%=      5-min Rain = 0
KWOS 041509Z 00013KT 12/07 A3016 RMK A01 T01150071  RH  075%=      5-min Rain = 0
KWOS 041510Z 00012KT 12/07 A3016 RMK A01 T01150071  RH  074%=      5-min Rain = 0
KWOS 041511Z 36013KT 12/07 A3017 RMK A01 T01160071  RH  074%=      5-min Rain = 0
KWOS 041512Z 35013KT 12/07 A3017 RMK A01 T01150068  RH  073%=      5-min Rain = 0
KWOS 041513Z 35015KT 12/07 A3017 RMK A01 T01150069  RH  074%=      5-min Rain = 0
KWOS 041514Z 35017KT 12/07 A3017 RMK A01 T01150069  RH  073%=      5-min Rain = 0
KWOS 041515Z 35016KT 12/07 A3017 RMK A01 T01150068  RH  073%=      5-min Rain = 0
KWOS 041516Z 36014KT 12/07 A3017 RMK A01 T01150067  RH  072%=      5-min Rain = 0
KWOS 041517Z 36013G18KT 11/07 A3017 RMK A01 T01140066  RH  072%=      5-min Rain = 0
KWOS 041518Z 35016KT 11/07 A3017 RMK A01 T01140067  RH  073%=      5-min Rain = 0
KWOS 041519Z 35013KT 11/07 A3017 RMK A01 T01140066  RH  073%=      5-min Rain = 0
KWOS 041520Z 36014KT 11/07 A3017 RMK A01 T01140068  RH  073%=      5-min Rain = 0
KWOS 041521Z 01013KT 12/07 A3017 RMK A01 T01150067  RH  072%=      5-min Rain = 0
KWOS 041522Z 01012KT 12/07 A3017 RMK A01 T01150068  RH  073%=      5-min Rain = 0
KWOS 041523Z 01012KT 12/07 A3017 RMK A01 T01160069  RH  073%=      5-min Rain = 0
KWOS 041524Z 01012KT 12/07 A3017 RMK A01 T01160067  RH  072%=      5-min Rain = 0
KWOS 041525Z 36012KT 12/07 A3017 RMK A01 T01150068  RH  072%=      5-min Rain = 0
KWOS 041526Z 36015KT 12/07 A3017 RMK A01 T01160067  RH  072%=      5-min Rain = 0
KWOS 041527Z 01013KT 12/07 A3017 RMK A01 T01160067  RH  072%=      5-min Rain = 0
KWOS 041528Z 00014KT 12/07 A3017 RMK A01 T01170067  RH  071%=      5-min Rain = 0
KWOS 041529Z 00013KT 12/07 A3017 RMK A01 T01170066  RH  071%=      5-min Rain = 0
KWOS 041530Z 36013KT 12/07 A3017 RMK A01 T01170067  RH  072%=      5-min Rain = 0
KWOS 041531Z 00012KT 12/07 A3017 RMK A01 T01170069  RH  072%=      5-min Rain = 0
KWOS 041532Z 36011KT 12/07 A3017 RMK A01 T01180070  RH  072%=      5-min Rain = 0
KWOS 041533Z 00011KT 12/07 A3017 RMK A01 T01180068  RH  071%=      5-min Rain = 0
KWOS 041534Z 01011KT 12/07 A3017 RMK A01 T01190069  RH  072%=      5-min Rain = 0
KWOS 041535Z 01012KT 12/07 A3017 RMK A01 T01200070  RH  071%=      5-min Rain = 0
KWOS 041536Z 00012G17KT 12/07 A3017 RMK A01 T01200067  RH  070%=      5-min Rain = 0
KWOS 041537Z 35013KT 12/07 A3017 RMK A01 T01200068  RH  071%=      5-min Rain = 0
KWOS 041538Z 36013KT 12/07 A3017 RMK A01 T01200067  RH  070%=      5-min Rain = 0
KWOS 041539Z 00013KT 12/07 A3017 RMK A01 T01190069  RH  071%=      5-min Rain = 0
KWOS 041540Z 00014KT 12/07 A3017 RMK A01 T01200069  RH  071%=      5-min Rain = 0
KWOS 041541Z 01014KT 12/07 A3017 RMK A01 T01200068  RH  070%=      5-min Rain = 0
KWOS 041542Z 01013KT 12/07 A3017 RMK A01 T01190069  RH  071%=      5-min Rain = 0
KWOS 041543Z 01011KT 12/07 A3017 RMK A01 T01190067  RH  070%=      5-min Rain = 0
KWOS 041544Z 01013KT 12/07 A3017 RMK A01 T01190067  RH  070%=      5-min Rain = 0
KWOS 041545Z 01013KT 12/07 A3017 RMK A01 T01190067  RH  070%=      5-min Rain = 0
KWOS 041546Z 00014KT 12/07 A3017 RMK A01 T01200068  RH  070%=      5-min Rain = 0
KWOS 041547Z 00012KT 12/06 A3017 RMK A01 T01200064  RH  069%=      5-min Rain = 0
KWOS 041548Z 36011KT 12/07 A3017 RMK A01 T01200068  RH  071%=      5-min Rain = 0
KWOS 041549Z 34011KT 12/07 A3018 RMK A01 T01210069  RH  070%=      5-min Rain = 0
KWOS 041550Z 35011KT 12/07 A3017 RMK A01 T01220067  RH  069%=      5-min Rain = 0
KWOS 041551Z 01012KT 12/07 A3018 RMK A01 T01220070  RH  070%=      5-min Rain = 0
KWOS 041552Z 36013KT 12/07 A3018 RMK A01 T01230071  RH  070%=      5-min Rain = 0
KWOS 041553Z 35014KT 12/07 A3018 RMK A01 T01230070  RH  070%=      5-min Rain = 0
KWOS 041554Z 01013KT 12/07 A3018 RMK A01 T01240068  RH  069%=      5-min Rain = 0
KWOS 041555Z 01012KT 12/07 A3018 RMK A01 T01240068  RH  069%=      5-min Rain = 0
KWOS 041556Z 00011KT 12/07 A3018 RMK A01 T01240069  RH  069%=      5-min Rain = 0
KWOS 041557Z 00014KT 12/07 A3018 RMK A01 T01240070  RH  070%=      5-min Rain = 0
KWOS 041558Z 00013KT 12/07 A3018 RMK A01 T01240066  RH  067%=      5-min Rain = 0
KWOS 041559Z 36011KT 12/07 A3018 RMK A01 T01230067  RH  069%=      5-min Rain = 0
KWOS 041600Z 36013KT 12/07 A3018 RMK A01 T01240069  RH  069%=      5-min Rain = 0
KWOS 041601Z 36013KT 13/07 A3018 RMK A01 T01250067  RH  068%=      5-min Rain = 0
KWOS 041602Z 00015KT 13/07 A3018 RMK A01 T01250066  RH  067%=      5-min Rain = 0
KWOS 041603Z 01015KT 13/07 A3018 RMK A01 T01250066  RH  068%=      5-min Rain = 0
KWOS 041604Z 00012KT 13/07 A3018 RMK A01 T01260068  RH  068%=      5-min Rain = 0
KWOS 041605Z 01012KT 13/07 A3018 RMK A01 T01270070  RH  068%=      5-min Rain = 0
KWOS 041606Z 02013KT 13/07 A3018 RMK A01 T01280066  RH  066%=      5-min Rain = 0
KWOS 041607Z 01014KT 13/06 A3018 RMK A01 T01270064  RH  066%=      5-min Rain = 0
KWOS 041608Z 00015KT 13/06 A3018 RMK A01 T01260063  RH  065%=      5-min Rain = 0
KWOS 041609Z 00015KT 13/06 A3018 RMK A01 T01250063  RH  066%=      5-min Rain = 0
KWOS 041610Z 00012KT 13/06 A3018 RMK A01 T01250062  RH  066%=      5-min Rain = 0
KWOS 041611Z 00012KT 12/06 A3018 RMK A01 T01240063  RH  066%=      5-min Rain = 0
KWOS 041612Z 00013KT 13/06 A3018 RMK A01 T01250062  RH  065%=      5-min Rain = 0
KWOS 041613Z 01012KT 13/07 A3018 RMK A01 T01260067  RH  067%=      5-min Rain = 0
KWOS 041614Z 35014KT 13/07 A3018 RMK A01 T01300070  RH  067%=      5-min Rain = 0
KWOS 041615Z 35013KT 13/06 A3018 RMK A01 T01310063  RH  063%=      5-min Rain = 0
KWOS 041616Z 35012KT 13/06 A3018 RMK A01 T01290063  RH  064%=      5-min Rain = 0
KWOS 041617Z 36014KT 13/06 A3018 RMK A01 T01290063  RH  064%=      5-min Rain = 0
KWOS 041618Z 36016KT 13/06 A3018 RMK A01 T01290060  RH  063%=      5-min Rain = 0
KWOS 041619Z 36013KT 13/07 A3018 RMK A01 T01300065  RH  065%=      5-min Rain = 0
KWOS 041620Z 35014KT 13/07 A3018 RMK A01 T01320065  RH  064%=      5-min Rain = 0
KWOS 041621Z 35015KT 13/06 A3018 RMK A01 T01330062  RH  062%=      5-min Rain = 0
KWOS 041622Z 36014KT 13/06 A3017 RMK A01 T01340063  RH  062%=      5-min Rain = 0
KWOS 041623Z 35014KT 13/06 A3018 RMK A01 T01340060  RH  061%=      5-min Rain = 0
KWOS 041624Z 00014KT 13/06 A3017 RMK A01 T01320059  RH  061%=      5-min Rain = 0
KWOS 041625Z 01010KT 13/06 A3017 RMK A01 T01320060  RH  062%=      5-min Rain = 0
KWOS 041626Z 36011KT 13/06 A3017 RMK A01 T01310060  RH  062%=      5-min Rain = 0
KWOS 041627Z 36014G20KT 13/06 A3017 RMK A01 T01320062  RH  063%=      5-min Rain = 0
KWOS 041628Z 00015KT 13/06 A3017 RMK A01 T01330060  RH  061%=      5-min Rain = 0
KWOS 041629Z 01013KT 13/06 A3017 RMK A01 T01330062  RH  062%=      5-min Rain = 0
KWOS 041630Z 36014KT 14/06 A3017 RMK A01 T01350062  RH  061%=      5-min Rain = 0
KWOS 041631Z 36014KT 13/06 A3018 RMK A01 T01340059  RH  060%=      5-min Rain = 0
KWOS 041632Z 36013KT 13/06 A3018 RMK A01 T01340060  RH  061%=      5-min Rain = 0
KWOS 041633Z 01009KT 13/06 A3018 RMK A01 T01330058  RH  060%=      5-min Rain = 0
KWOS 041634Z 02012G17KT 13/06 A3018 RMK A01 T01330060  RH  061%=      5-min Rain = 0
KWOS 041635Z 01014KT 13/06 A3018 RMK A01 T01340062  RH  061%=      5-min Rain = 0
KWOS 041636Z 01013KT 14/06 A3018 RMK A01 T01360061  RH  060%=      5-min Rain = 0
KWOS 041637Z 01012KT 14/06 A3018 RMK A01 T01370061  RH  060%=      5-min Rain = 0
KWOS 041638Z 02011KT 14/06 A3018 RMK A01 T01380062  RH  060%=      5-min Rain = 0
KWOS 041639Z 04013KT 14/06 A3017 RMK A01 T01380064  RH  061%=      5-min Rain = 0
KWOS 041640Z 03016KT 14/06 A3017 RMK A01 T01380064  RH  061%=      5-min Rain = 0
KWOS 041641Z 02015KT 14/06 A3018 RMK A01 T01370063  RH  061%=      5-min Rain = 0
KWOS 041642Z 02014KT 14/06 A3018 RMK A01 T01370062  RH  060%=      5-min Rain = 0
KWOS 041643Z 02010KT 14/06 A3018 RMK A01 T01370059  RH  059%=      5-min Rain = 0
KWOS 041644Z 02012KT 14/06 A3018 RMK A01 T01360058  RH  060%=      5-min Rain = 0
KWOS 041645Z 01013KT 14/06 A3018 RMK A01 T01360061  RH  060%=      5-min Rain = 0
KWOS 041646Z 01011KT 14/06 A3018 RMK A01 T01360059  RH  060%=      5-min Rain = 0
KWOS 041647Z 01012G17KT 14/06 A3018 RMK A01 T01370059  RH  059%=      5-min Rain = 0
KWOS 041648Z 01012KT 14/06 A3018 RMK A01 T01370059  RH  059%=      5-min Rain = 0
KWOS 041649Z 01013KT 14/06 A3018 RMK A01 T01370059  RH  059%=      5-min Rain = 0
KWOS 041650Z 02012KT 14/06 A3018 RMK A01 T01380060  RH  059%=      5-min Rain = 0
KWOS 041651Z 03010KT 14/06 A3018 RMK A01 T01380059  RH  059%=      5-min Rain = 0
KWOS 041652Z 02013KT 14/06 A3018 RMK A01 T01380062  RH  060%=      5-min Rain = 0
KWOS 041653Z 02011KT 14/06 A3018 RMK A01 T01390063  RH  060%=      5-min Rain = 0
KWOS 041654Z 01009KT 14/06 A3018 RMK A01 T01390059  RH  058%=      5-min Rain = 0
KWOS 041655Z 01010KT 14/06 A3018 RMK A01 T01390062  RH  060%=      5-min Rain = 0
KWOS 041656Z 00012KT 14/06 A3018 RMK A01 T01400060  RH  059%=      5-min Rain = 0
KWOS 041657Z 02015G20KT 14/06 A3018 RMK A01 T01410062  RH  059%=      5-min Rain = 0
KWOS 041658Z 02014KT 14/06 A3018 RMK A01 T01420064  RH  060%=      5-min Rain = 0
KWOS 041659Z 02014KT 14/06 A3018 RMK A01 T01410061  RH  058%=      5-min Rain = 0
KWOS 041700Z 03013KT 14/06 A3018 RMK A01 T01410060  RH  058%=      5-min Rain = 0
KWOS 041701Z 02010KT 14/06 A3018 RMK A01 T01390059  RH  058%=      5-min Rain = 0
KWOS 041702Z 02009KT 14/06 A3018 RMK A01 T01390059  RH  059%=      5-min Rain = 0
KWOS 041703Z 02012KT 14/06 A3018 RMK A01 T01390062  RH  060%=      5-min Rain = 0
KWOS 041704Z 01012KT 14/06 A3018 RMK A01 T01410061  RH  058%=      5-min Rain = 0
KWOS 041705Z 01014KT 14/06 A3017 RMK A01 T01410058  RH  057%=      5-min Rain = 0
KWOS 041706Z 02014G20KT 14/06 A3017 RMK A01 T01420064  RH  059%=      5-min Rain = 0
KWOS 041707Z 01012KT 14/06 A3018 RMK A01 T01440064  RH  058%=      5-min Rain = 0
KWOS 041708Z 02010KT 15/06 A3018 RMK A01 T01450060  RH  057%=      5-min Rain = 0
KWOS 041709Z 02011KT 14/06 A3018 RMK A01 T01430060  RH  058%=      5-min Rain = 0
KWOS 041710Z 01012KT 14/06 A3018 RMK A01 T01430062  RH  058%=      5-min Rain = 0
KWOS 041711Z 01012KT 14/06 A3018 RMK A01 T01430063  RH  059%=      5-min Rain = 0
KWOS 041712Z 01012KT 14/06 A3018 RMK A01 T01430062  RH  058%=      5-min Rain = 0
KWOS 041713Z 01015KT 14/06 A3018 RMK A01 T01440060  RH  057%=      5-min Rain = 0
KWOS 041714Z 01014KT 14/06 A3018 RMK A01 T01430059  RH  057%=      5-min Rain = 0
KWOS 041715Z 01012KT 14/06 A3018 RMK A01 T01410058  RH  057%=      5-min Rain = 0
KWOS 041716Z 02011KT 14/06 A3018 RMK A01 T01410062  RH  059%=      5-min Rain = 0
KWOS 041717Z 02012KT 14/06 A3018 RMK A01 T01420059  RH  057%=      5-min Rain = 0
KWOS 041718Z 00011KT 14/06 A3018 RMK A01 T01420059  RH  057%=      5-min Rain = 0
KWOS 041719Z 36015KT 14/06 A3018 RMK A01 T01420060  RH  058%=      5-min Rain = 0
KWOS 041720Z 01012KT 14/06 A3018 RMK A01 T01440061  RH  057%=      5-min Rain = 0
KWOS 041721Z 03012KT 15/06 A3018 RMK A01 T01460061  RH  057%=      5-min Rain = 0
KWOS 041722Z 02011KT 15/06 A3017 RMK A01 T01450062  RH  058%=      5-min Rain = 0
KWOS 041723Z 00013KT 14/06 A3018 RMK A01 T01430059  RH  057%=      5-min Rain = 0
KWOS 041724Z 36012KT 14/06 A3018 RMK A01 T01440061  RH  057%=      5-min Rain = 0
KWOS 041725Z 35011KT 15/06 A3018 RMK A01 T01450061  RH  057%=      5-min Rain = 0
KWOS 041726Z 01010KT 15/06 A3018 RMK A01 T01460058  RH  055%=      5-min Rain = 0
KWOS 041727Z 03013KT 15/06 A3017 RMK A01 T01450061  RH  057%=      5-min Rain = 0
KWOS 041728Z 02011KT 14/06 A3017 RMK A01 T01440059  RH  057%=      5-min Rain = 0
KWOS 041729Z 02010KT 14/06 A3017 RMK A01 T01410056  RH  056%=      5-min Rain = 0
KWOS 041730Z 03014KT 14/06 A3017 RMK A01 T01410060  RH  058%=      5-min Rain = 0
KWOS 041731Z 02013KT 14/06 A3017 RMK A01 T01420061  RH  058%=      5-min Rain = 0
KWOS 041732Z 02010KT 15/07 A3017 RMK A01 T01450065  RH  059%=      5-min Rain = 0
KWOS 041733Z 36012KT 15/06 A3017 RMK A01 T01480061  RH  056%=      5-min Rain = 0
KWOS 041734Z 35011KT 15/06 A3017 RMK A01 T01450056  RH  055%=      5-min Rain = 0
KWOS 041735Z 36011KT 14/06 A3017 RMK A01 T01430056  RH  056%=      5-min Rain = 0
KWOS 041736Z 00008KT 14/06 A3017 RMK A01 T01430056  RH  056%=      5-min Rain = 0
KWOS 041737Z 02006KT 14/06 A3017 RMK A01 T01440062  RH  058%=      5-min Rain = 0
KWOS 041738Z 03011KT 15/06 A3017 RMK A01 T01460064  RH  058%=      5-min Rain = 0
KWOS 041739Z 03011KT 15/06 A3017 RMK A01 T01470062  RH  057%=      5-min Rain = 0
KWOS 041740Z 03010KT 15/06 A3016 RMK A01 T01470060  RH  056%=      5-min Rain = 0
KWOS 041741Z 03011KT 15/06 A3016 RMK A01 T01460060  RH  056%=      5-min Rain = 0
KWOS 041742Z 02011KT 15/06 A3016 RMK A01 T01460061  RH  057%=      5-min Rain = 0
KWOS 041743Z 02009KT 15/06 A3016 RMK A01 T01470060  RH  056%=      5-min Rain = 0
KWOS 041744Z 04010G15KT 15/06 A3016 RMK A01 T01500063  RH  056%=      5-min Rain = 0
KWOS 041745Z 03010KT 15/07 A3016 RMK A01 T01520068  RH  057%=      5-min Rain = 0
KWOS 041746Z 02010KT 16/07 A3016 RMK A01 T01550068  RH  056%=      5-min Rain = 0
KWOS 041747Z 03008KT 16/06 A3016 RMK A01 T01560061  RH  053%=      5-min Rain = 0
KWOS 041748Z 04010KT 15/06 A3016 RMK A01 T01540064  RH  055%=      5-min Rain = 0
KWOS 041749Z 03009KT 15/06 A3016 RMK A01 T01500058  RH  054%=      5-min Rain = 0
KWOS 041750Z 01009KT 15/06 A3016 RMK A01 T01470057  RH  055%=      5-min Rain = 0
KWOS 041751Z 03011KT 15/06 A3016 RMK A01 T01470059  RH  056%=      5-min Rain = 0
KWOS 041752Z 04009KT 15/06 A3016 RMK A01 T01480062  RH  056%=      5-min Rain = 0
KWOS 041753Z 02011KT 15/07 A3016 RMK A01 T01490065  RH  057%=      5-min Rain = 0
KWOS 041754Z 03011KT 15/06 A3016 RMK A01 T01520064  RH  055%=      5-min Rain = 0
KWOS 041755Z 03010KT 15/06 A3016 RMK A01 T01540062  RH  054%=      5-min Rain = 0
KWOS 041756Z 04006KT 15/06 A3016 RMK A01 T01520059  RH  054%=      5-min Rain = 0
KWOS 041757Z 03011G16KT 15/06 A3016 RMK A01 T01510063  RH  056%=      5-min Rain = 0
KWOS 041758Z 05012KT 15/07 A3015 RMK A01 T01540067  RH  056%=      5-min Rain = 0
KWOS 041759Z 03012KT 16/06 A3016 RMK A01 T01550063  RH  054%=      5-min Rain = 0
KWOS 041800Z 01013KT 16/06 A3016 RMK A01 T01550059  RH  053%=      5-min Rain = 0
KWOS 041801Z 01012KT 15/06 A3016 RMK A01 T01510058  RH  054%=      5-min Rain = 0
KWOS 041802Z 36011KT 15/06 A3016 RMK A01 T01520058  RH  053%=      5-min Rain = 0
KWOS 041803Z 35011KT 15/06 A3016 RMK A01 T01510056  RH  053%=      5-min Rain = 0
KWOS 041804Z 35011KT 15/05 A3016 RMK A01 T01510054  RH  053%=      5-min Rain = 0
KWOS 041805Z 35011KT 15/05 A3016 RMK A01 T01490053  RH  053%=      5-min Rain = 0
KWOS 041806Z 36010G15KT 15/06 A3016 RMK A01 T01480056  RH  054%=      5-min Rain = 0
KWOS 041807Z 01012G17KT 15/06 A3016 RMK A01 T01500059  RH  054%=      5-min Rain = 0
KWOS 041808Z 00009KT 15/06 A3016 RMK A01 T01510057  RH  053%=      5-min Rain = 0
KWOS 041809Z 35009KT 15/06 A3016 RMK A01 T01510055  RH  052%=      5-min Rain = 0
KWOS 041810Z 34013KT 15/05 A3016 RMK A01 T01500054  RH  053%=      5-min Rain = 0
KWOS 041811Z 34011KT 15/05 A3016 RMK A01 T01510054  RH  052%=      5-min Rain = 0
KWOS 041812Z 35009G15KT 15/06 A3016 RMK A01 T01530055  RH  052%=      5-min Rain = 0
KWOS 041813Z 35010KT 16/06 A3016 RMK A01 T01550056  RH  051%=      5-min Rain = 0
KWOS 041814Z 36006KT 15/05 A3016 RMK A01 T01540051  RH  050%=      5-min Rain = 0
KWOS 041815Z 35005KT 15/05 A3015 RMK A01 T01520051  RH  051%=      5-min Rain = 0
KWOS 041816Z 00010KT 15/06 A3015 RMK A01 T01520055  RH  052%=      5-min Rain = 0
KWOS 041817Z 35009KT 15/05 A3015 RMK A01 T01540053  RH  051%=      5-min Rain = 0
KWOS 041818Z 34008KT 15/05 A3015 RMK A01 T01520052  RH  051%=      5-min Rain = 0
KWOS 041819Z 34009KT 15/05 A3015 RMK A01 T01510053  RH  052%=      5-min Rain = 0
KWOS 041820Z 34009KT 15/05 A3015 RMK A01 T01530053  RH  051%=      5-min Rain = 0
KWOS 041821Z 00011KT 15/05 A3015 RMK A01 T01530053  RH  051%=      5-min Rain = 0
KWOS 041822Z 02008KT 15/06 A3015 RMK A01 T01540056  RH  052%=      5-min Rain = 0
KWOS 041823Z 00010KT 16/06 A3015 RMK A01 T01560060  RH  053%=      5-min Rain = 0
KWOS 041824Z 01008KT 16/06 A3015 RMK A01 T01620061  RH  051%=      5-min Rain = 0
KWOS 041825Z 00009G15KT 16/05 A3015 RMK A01 T01610054  RH  049%=      5-min Rain = 0
KWOS 041826Z 00014KT 16/06 A3015 RMK A01 T01600060  RH  051%=      5-min Rain = 0
KWOS 041827Z 36009KT 16/06 A3015 RMK A01 T01610055  RH  049%=      5-min Rain = 0
KWOS 041828Z 00004KT 16/05 A3015 RMK A01 T01590053  RH  049%=      5-min Rain = 0
KWOS 041829Z 35004KT 16/05 A3015 RMK A01 T01580054  RH  050%=      5-min Rain = 0
KWOS 041830Z 01009KT 16/06 A3015 RMK A01 T01590059  RH  051%=      5-min Rain = 0
KWOS 041831Z 36013KT 16/06 A3015 RMK A01 T01620061  RH  051%=      5-min Rain = 0
KWOS 041832Z 00011KT 17/06 A3015 RMK A01 T01650056  RH  048%=      5-min Rain = 0
KWOS 041833Z 00012KT 16/05 A3015 RMK A01 T01630054  RH  048%=      5-min Rain = 0
KWOS 041834Z 01010KT 16/05 A3015 RMK A01 T01600053  RH  049%=      5-min Rain = 0
KWOS 041835Z 36007KT 16/05 A3015 RMK A01 T01590052  RH  049%=      5-min Rain = 0
KWOS 041836Z 35005KT 16/05 A3015 RMK A01 T01580051  RH  049%=      5-min Rain = 0
KWOS 041837Z 36005G10KT 16/05 A3015 RMK A01 T01580051  RH  049%=      5-min Rain = 0
KWOS 041838Z 02010KT 16/05 A3015 RMK A01 T01580054  RH  050%=      5-min Rain = 0
KWOS 041839Z 02008KT 16/06 A3015 RMK A01 T01590057  RH  051%=      5-min Rain = 0
KWOS 041840Z 02007KT 16/06 A3015 RMK A01 T01620057  RH  050%=      5-min Rain = 0
KWOS 041841Z 03008G13KT 16/06 A3014 RMK A01 T01620060  RH  051%=      5-min Rain = 0
KWOS 041842Z 02009KT 17/06 A3014 RMK A01 T01650063  RH  051%=      5-min Rain = 0
KWOS 041843Z 02008KT 17/06 A3014 RMK A01 T01660062  RH  050%=      5-min Rain = 0
KWOS 041844Z 00012KT 17/06 A3014 RMK A01 T01680061  RH  049%=      5-min Rain = 0
KWOS 041845Z 34011KT 17/06 A3014 RMK A01 T01670055  RH  048%=      5-min Rain = 0
KWOS 041846Z 33009KT 17/05 A3014 RMK A01 T01650052  RH  047%=      5-min Rain = 0
KWOS 041847Z 34008KT 16/05 A3014 RMK A01 T01630053  RH  048%=      5-min Rain = 0
KWOS 041848Z 35007KT 17/06 A3014 RMK A01 T01650056  RH  048%=      5-min Rain = 0
KWOS 041849Z 36004KT 17/06 A3014 RMK A01 T01680055  RH  047%=      5-min Rain = 0
KWOS 041850Z 01007KT 17/06 A3014 RMK A01 T01680060  RH  049%=      5-min Rain = 0
KWOS 041851Z 00008KT 17/06 A3014 RMK A01 T01690056  RH  047%=      5-min Rain = 0
KWOS 041852Z 35009KT 17/06 A3014 RMK A01 T01680056  RH  048%=      5-min Rain = 0
KWOS 041853Z 35009KT 17/05 A3014 RMK A01 T01650051  RH  047%=      5-min Rain = 0
KWOS 041854Z 34007G12KT 16/05 A3014 RMK A01 T01620052  RH  048%=      5-min Rain = 0
KWOS 041855Z 32008KT 16/05 A3014 RMK A01 T01620051  RH  048%=      5-min Rain = 0
KWOS 041856Z 33009KT 16/05 A3014 RMK A01 T01630053  RH  048%=      5-min Rain = 0
KWOS 041857Z 36008KT 17/06 A3014 RMK A01 T01670056  RH  048%=      5-min Rain = 0
KWOS 041858Z 35009KT 17/06 A3014 RMK A01 T01700062  RH  049%=      5-min Rain = 0
KWOS 041859Z 35009KT 17/06 A3014 RMK A01 T01740059  RH  047%=      5-min Rain = 0
KWOS 041900Z 00013KT 18/06 A3014 RMK A01 T01760058  RH  046%=      5-min Rain = 0
KWOS 041901Z 01012KT 18/06 A3014 RMK A01 T01760061  RH  047%=      5-min Rain = 0
KWOS 041902Z 01011G16KT 18/06 A3014 RMK A01 T01750059  RH  046%=      5-min Rain = 0
KWOS 041903Z 36005G10KT 17/05 A3014 RMK A01 T01690051  RH  046%=      5-min Rain = 0
KWOS 041904Z 32006KT 16/05 A3014 RMK A01 T01630049  RH  047%=      5-min Rain = 0
KWOS 041905Z 32005KT 16/05 A3014 RMK A01 T01610051  RH  048%=      5-min Rain = 0
KWOS 041906Z 33008KT 16/05 A3014 RMK A01 T01610051  RH  048%=      5-min Rain = 0
KWOS 041907Z 00004KT 16/05 A3014 RMK A01 T01610052  RH  048%=      5-min Rain = 0
KWOS 041908Z 02001KT 16/05 A3014 RMK A01 T01610051  RH  048%=      5-min Rain = 0
KWOS 041909Z 21000KT 16/05 A3014 RMK A01 T01610051  RH  048%=      5-min Rain = 0
KWOS 041910Z 13000KT 16/05 A3013 RMK A01 T01610051  RH  048%=      5-min Rain = 0
KWOS 041911Z 04004G11KT 16/05 A3013 RMK A01 T01610052  RH  048%=      5-min Rain = 0
KWOS 041912Z 01011KT 16/06 A3013 RMK A01 T01620058  RH  050%=      5-min Rain = 0
KWOS 041913Z 01012KT 17/06 A3013 RMK A01 T01660057  RH  048%=      5-min Rain = 0
KWOS 041914Z 01008KT 17/06 A3013 RMK A01 T01660055  RH  048%=      5-min Rain = 0
KWOS 041915Z 01006KT 17/05 A3013 RMK A01 T01660054  RH  048%=      5-min Rain = 0
KWOS 041916Z 00006KT 17/05 A3013 RMK A01 T01650053  RH  047%=      5-min Rain = 0
KWOS 041917Z 01006G11KT 16/05 A3013 RMK A01 T01640053  RH  048%=      5-min Rain = 0
KWOS 041918Z 02008KT 17/06 A3013 RMK A01 T01650059  RH  049%=      5-min Rain = 0
KWOS 041919Z 01008KT 17/06 A3013 RMK A01 T01690059  RH  048%=      5-min Rain = 0
KWOS 041920Z 00007KT 17/06 A3013 RMK A01 T01700055  RH  047%=      5-min Rain = 0
KWOS 041921Z 03007KT 17/06 A3013 RMK A01 T01690057  RH  048%=      5-min Rain = 0
KWOS 041922Z 03010KT 17/06 A3013 RMK A01 T01690061  RH  049%=      5-min Rain = 0
KWOS 041923Z 04008KT 17/06 A3013 RMK A01 T01680061  RH  049%=      5-min Rain = 0
KWOS 041924Z 01010KT 17/06 A3013 RMK A01 T01690061  RH  049%=      5-min Rain = 0
KWOS 041925Z 34010KT 17/06 A3013 RMK A01 T01720055  RH  046%=      5-min Rain = 0
KWOS 041926Z 33008KT 17/06 A3013 RMK A01 T01730055  RH  046%=      5-min Rain = 0
KWOS 041927Z 33010G15KT 18/05 A3013 RMK A01 T01750054  RH  045%=      5-min Rain = 0
KWOS 041928Z 00008KT 18/06 A3013 RMK A01 T01750055  RH  045%=      5-min Rain = 0
KWOS 041929Z 36008KT 18/05 A3013 RMK A01 T01760054  RH  045%=      5-min Rain = 0
KWOS 041930Z 01008KT 18/06 A3013 RMK A01 T01750055  RH  045%=      5-min Rain = 0
KWOS 041931Z 01005KT 18/06 A3013 RMK A01 T01760055  RH  045%=      5-min Rain = 0
KWOS 041932Z 33006KT 18/06 A3013 RMK A01 T01760055  RH  045%=      5-min Rain = 0
KWOS 041933Z 02010KT 18/06 A3013 RMK A01 T01760057  RH  046%=      5-min Rain = 0
KWOS 041934Z 36011KT 18/06 A3013 RMK A01 T01770059  RH  046%=      5-min Rain = 0
KWOS 041935Z 34010KT 18/06 A3013 RMK A01 T01780056  RH  045%=      5-min Rain = 0
KWOS 041936Z 35004KT 18/05 A3013 RMK A01 T01760051  RH  044%=      5-min Rain = 0
KWOS 041937Z 35002KT 17/05 A3013 RMK A01 T01730052  RH  045%=      5-min Rain = 0
KWOS 041938Z 01003KT 17/05 A3013 RMK A01 T01730054  RH  045%=      5-min Rain = 0
KWOS 041939Z 02009KT 17/05 A3013 RMK A01 T01720054  RH  046%=      5-min Rain = 0
KWOS 041940Z 00008KT 17/05 A3013 RMK A01 T01730054  RH  045%=      5-min Rain = 0
KWOS 041941Z 35004KT 17/05 A3013 RMK A01 T01730050  RH  044%=      5-min Rain = 0
KWOS 041942Z 02003KT 17/05 A3013 RMK A01 T01710052  RH  045%=      5-min Rain = 0
KWOS 041943Z 02003KT 17/05 A3013 RMK A01 T01710050  RH  045%=      5-min Rain = 0
KWOS 041944Z 34005G13KT 17/05 A3013 RMK A01 T01700053  RH  046%=      5-min Rain = 0
KWOS 041945Z 35013KT 18/06 A3013 RMK A01 T01750055  RH  045%=      5-min Rain = 0
KWOS 041946Z 36008G13KT 18/05 A3013 RMK A01 T01770052  RH  044%=      5-min Rain = 0
KWOS 041947Z 35012KT 18/06 A3013 RMK A01 T01790056  RH  044%=      5-min Rain = 0
KWOS 041948Z 33009KT 18/05 A3013 RMK A01 T01790052  RH  043%=      5-min Rain = 0
KWOS 041949Z 35008KT 18/05 A3013 RMK A01 T01780053  RH  044%=      5-min Rain = 0
KWOS 041950Z 35006KT 18/05 A3012 RMK A01 T01770053  RH  044%=      5-min Rain = 0
KWOS 041951Z 35005KT 18/05 A3012 RMK A01 T01750051  RH  044%=      5-min Rain = 0
KWOS 041952Z 35005KT 17/05 A3012 RMK A01 T01730052  RH  045%=      5-min Rain = 0
KWOS 041953Z 34010KT 17/05 A3012 RMK A01 T01720053  RH  045%=      5-min Rain = 0
KWOS 041954Z 33011KT 17/05 A3012 RMK A01 T01740052  RH  044%=      5-min Rain = 0
KWOS 041955Z 33010KT 18/05 A3012 RMK A01 T01750053  RH  045%=      5-min Rain = 0
KWOS 041956Z 33009G14KT 18/05 A3012 RMK A01 T01790051  RH  043%=      5-min Rain = 0
KWOS 041957Z 32013KT 18/05 A3012 RMK A01 T01800052  RH  043%=      5-min Rain = 0
KWOS 041958Z 33010KT 18/05 A3012 RMK A01 T01810047  RH  041%=      5-min Rain = 0
KWOS 041959Z 32010G15KT 18/05 A3012 RMK A01 T01770048  RH  043%=      5-min Rain = 0
KWOS 042000Z 32009KT 18/05 A3012 RMK A01 T01790052  RH  043%=      5-min Rain = 0
KWOS 042001Z 32010G15KT 18/05 A3012 RMK A01 T01810051  RH  042%=      5-min Rain = 0
KWOS 042002Z 35011G17KT 18/05 A3012 RMK A01 T01830053  RH  042%=      5-min Rain = 0
KWOS 042003Z 02010G15KT 18/05 A3012 RMK A01 T01830052  RH  042%=      5-min Rain = 0
KWOS 042004Z 03007KT 18/05 A3012 RMK A01 T01800051  RH  043%=      5-min Rain = 0
KWOS 042005Z 02006KT 18/05 A3012 RMK A01 T01780052  RH  043%=      5-min Rain = 0
KWOS 042006Z 34008G13KT 18/05 A3012 RMK A01 T01780052  RH  043%=      5-min Rain = 0
KWOS 042007Z 34012KT 18/06 A3012 RMK A01 T01840057  RH  043%=      5-min Rain = 0
KWOS 042008Z 33012KT 19/05 A3012 RMK A01 T01890053  RH  041%=      5-min Rain = 0
KWOS 042009Z 36013KT 19/05 A3012 RMK A01 T01900054  RH  041%=      5-min Rain = 0
KWOS 042010Z 34009KT 19/05 A3012 RMK A01 T01890051  RH  040%=      5-min Rain = 0
KWOS 042011Z 35009G16KT 19/05 A3012 RMK A01 T01860051  RH  041%=      5-min Rain = 0
KWOS 042012Z 35011KT 19/05 A3012 RMK A01 T01870054  RH  042%=      5-min Rain = 0
KWOS 042013Z 00011KT 19/05 A3012 RMK A01 T01870051  RH  041%=      5-min Rain = 0
KWOS 042014Z 00012KT 19/05 A3012 RMK A01 T01850053  RH  042%=      5-min Rain = 0
KWOS 042015Z 35008G13KT 18/05 A3012 RMK A01 T01840051  RH  041%=      5-min Rain = 0
KWOS 042016Z 36006KT 18/05 A3012 RMK A01 T01840051  RH  041%=      5-min Rain = 0
KWOS 042017Z 01006KT 19/05 A3011 RMK A01 T01860053  RH  042%=      5-min Rain = 0
KWOS 042018Z 03002KT 19/05 A3011 RMK A01 T01850049  RH  041%=      5-min Rain = 0
KWOS 042019Z 01005G10KT 18/05 A3011 RMK A01 T01830051  RH  042%=      5-min Rain = 0
KWOS 042020Z 01009KT 18/05 A3011 RMK A01 T01830052  RH  042%=      5-min Rain = 0
KWOS 042021Z 00007KT 18/05 A3011 RMK A01 T01840051  RH  042%=      5-min Rain = 0
KWOS 042022Z 03008KT 18/05 A3011 RMK A01 T01830051  RH  042%=      5-min Rain = 0
KWOS 042023Z 04009KT 18/06 A3011 RMK A01 T01820057  RH  044%=      5-min Rain = 0
KWOS 042024Z 02008KT 18/06 A3011 RMK A01 T01830056  RH  043%=      5-min Rain = 0
KWOS 042025Z 36010G16KT 18/05 A3011 RMK A01 T01830053  RH  043%=      5-min Rain = 0
KWOS 042026Z 00012KT 18/05 A3011 RMK A01 T01840051  RH  041%=      5-min Rain = 0
KWOS 042027Z 00009KT 19/05 A3011 RMK A01 T01850050  RH  041%=      5-min Rain = 0
KWOS 042028Z 35011KT 18/05 A3011 RMK A01 T01840050  RH  041%=      5-min Rain = 0
KWOS 042029Z 01010KT 18/05 A3011 RMK A01 T01830048  RH  041%=      5-min Rain = 0
KWOS 042030Z 01007KT 18/05 A3011 RMK A01 T01840049  RH  041%=      5-min Rain = 0
KWOS 042031Z 00013KT 18/05 A3011 RMK A01 T01820049  RH  041%=      5-min Rain = 0
KWOS 042032Z 35008G14KT 18/05 A3011 RMK A01 T01820048  RH  041%=      5-min Rain = 0
KWOS 042033Z 01011KT 18/05 A301 RMK A01 T01830050  RH  042%=      5-min Rain = 0
KWOS 042034Z 36009KT 18/05 A301 RMK A01 T01840052  RH  042%=      5-min Rain = 0
KWOS 042035Z 02009KT 19/05 A301 RMK A01 T01860052  RH  041%=      5-min Rain = 0
KWOS 042036Z 36008KT 19/05 A301 RMK A01 T01870053  RH  041%=      5-min Rain = 0
KWOS 042037Z 35009KT 19/05 A301 RMK A01 T01880051  RH  040%=      5-min Rain = 0
KWOS 042038Z 33009KT 19/05 A301 RMK A01 T01880049  RH  040%=      5-min Rain = 0
KWOS 042039Z 32006KT 19/05 A301 RMK A01 T01850049  RH  041%=      5-min Rain = 0
KWOS 042040Z 33005G12KT 19/05 A301 RMK A01 T01850049  RH  041%=      5-min Rain = 0
KWOS 042041Z 32010KT 19/05 A301 RMK A01 T01880052  RH  041%=      5-min Rain = 0
KWOS 042042Z 31006G11KT 19/05 A301 RMK A01 T01890050  RH  040%=      5-min Rain = 0
KWOS 042043Z 28004KT 19/05 A301 RMK A01 T01880051  RH  041%=      5-min Rain = 0
KWOS 042044Z 28006KT 19/05 A3009 RMK A01 T01900053  RH  040%=      5-min Rain = 0
KWOS 042045Z 28006KT 19/05 A3009 RMK A01 T01910051  RH  040%=      5-min Rain = 0
KWOS 042046Z 27004KT 19/05 A3009 RMK A01 T01900052  RH  040%=      5-min Rain = 0
KWOS 042047Z 33004KT 19/05 A3009 RMK A01 T01900049  RH  040%=      5-min Rain = 0
KWOS 042048Z 35007KT 19/05 A3009 RMK A01 T01890052  RH  041%=      5-min Rain = 0
KWOS 042049Z 00006KT 19/05 A3009 RMK A01 T01890049  RH  040%=      5-min Rain = 0
KWOS 042050Z 03004G9KT 19/05 A3009 RMK A01 T01870050  RH  040%=      5-min Rain = 0
KWOS 042051Z 04005KT 19/05 A3009 RMK A01 T01860052  RH  041%=      5-min Rain = 0
KWOS 042052Z 35005G14KT 19/05 A3009 RMK A01 T01860054  RH  042%=      5-min Rain = 0
KWOS 042053Z 36012G17KT 19/05 A3009 RMK A01 T01900053  RH  041%=      5-min Rain = 0
KWOS 042054Z 00011G16KT 19/05 A3009 RMK A01 T01940051  RH  039%=      5-min Rain = 0
KWOS 042055Z 35015KT 20/05 A3009 RMK A01 T01950051  RH  039%=      5-min Rain = 0
KWOS 042056Z 35013KT 20/05 A3009 RMK A01 T01950047  RH  038%=      5-min Rain = 0
KWOS 042057Z 34011KT 19/05 A3009 RMK A01 T01910046  RH  038%=      5-min Rain = 0
KWOS 042058Z 33009KT 19/05 A3009 RMK A01 T01890046  RH  039%=      5-min Rain = 0
KWOS 042059Z 32009KT 19/05 A3009 RMK A01 T01870047  RH  040%=      5-min Rain = 0
KWOS 042100Z 34009KT 19/05 A3009 RMK A01 T01880049  RH  040%=      5-min Rain = 0
KWOS 042101Z 31008KT 19/05 A3009 RMK A01 T01900049  RH  039%=      5-min Rain = 0
KWOS 042102Z 31007KT 19/05 A3009 RMK A01 T01910049  RH  039%=      5-min Rain = 0
KWOS 042103Z 30004KT 19/05 A3009 RMK A01 T01910049  RH  039%=      5-min Rain = 0
KWOS 042104Z 00006KT 19/05 A3009 RMK A01 T01920049  RH  039%=      5-min Rain = 0
KWOS 042105Z 34007KT 19/05 A3009 RMK A01 T01910048  RH  039%=      5-min Rain = 0
KWOS 042106Z 35011G16KT 19/05 A3009 RMK A01 T01900050  RH  040%=      5-min Rain = 0
KWOS 042107Z 36012KT 19/05 A3009 RMK A01 T01910050  RH  040%=      5-min Rain = 0
KWOS 042108Z 35010KT 19/05 A3009 RMK A01 T01910052  RH  040%=      5-min Rain = 0
KWOS 042109Z 33006KT 19/05 A3009 RMK A01 T01900046  RH  039%=      5-min Rain = 0
KWOS 042110Z 36003KT 19/05 A3009 RMK A01 T01850047  RH  040%=      5-min Rain = 0
KWOS 042111Z 01005G10KT 19/05 A3009 RMK A01 T01860049  RH  040%=      5-min Rain = 0
KWOS 042112Z 05009KT 19/05 A3009 RMK A01 T01870050  RH  041%=      5-min Rain = 0
KWOS 042113Z 05008KT 19/05 A3009 RMK A01 T01860050  RH  041%=      5-min Rain = 0
KWOS 042114Z 05008KT 19/06 A3009 RMK A01 T01860055  RH  042%=      5-min Rain = 0
KWOS 042115Z 06005KT 19/05 A3009 RMK A01 T01860052  RH  041%=      5-min Rain = 0
KWOS 042116Z 04005KT 19/05 A3009 RMK A01 T01880051  RH  040%=      5-min Rain = 0
KWOS 042117Z 06005KT 19/05 A3009 RMK A01 T01890049  RH  040%=      5-min Rain = 0
KWOS 042118Z 06005KT 19/05 A3008 RMK A01 T01880051  RH  040%=      5-min Rain = 0
KWOS 042119Z 04007KT 19/05 A3009 RMK A01 T01910054  RH  041%=      5-min Rain = 0
KWOS 042120Z 01005KT 19/05 A3009 RMK A01 T01920052  RH  040%=      5-min Rain = 0
KWOS 042121Z 33009KT 19/05 A3009 RMK A01 T01930049  RH  039%=      5-min Rain = 0
KWOS 042122Z 35007KT 19/04 A3009 RMK A01 T01930044  RH  038%=      5-min Rain = 0
KWOS 042123Z 33004KT 19/05 A3009 RMK A01 T01910047  RH  039%=      5-min Rain = 0
KWOS 042124Z 02006KT 19/05 A3009 RMK A01 T01940050  RH  039%=      5-min Rain = 0
KWOS 042125Z 05007KT 20/05 A3008 RMK A01 T01960054  RH  039%=      5-min Rain = 0
KWOS 042126Z 05006KT 20/05 A3008 RMK A01 T01950050  RH  038%=      5-min Rain = 0
KWOS 042127Z 01008KT 20/05 A3008 RMK A01 T01950054  RH  039%=      5-min Rain = 0
KWOS 042128Z 01008KT 20/05 A3009 RMK A01 T01970051  RH  038%=      5-min Rain = 0
KWOS 042129Z 36009KT 20/05 A3009 RMK A01 T01970049  RH  038%=      5-min Rain = 0
KWOS 042130Z 35012KT 20/05 A3009 RMK A01 T01960046  RH  037%=      5-min Rain = 0
KWOS 042131Z 35009KT 20/05 A3009 RMK A01 T01950045  RH  037%=      5-min Rain = 0
KWOS 042132Z 34009KT 19/05 A3008 RMK A01 T01930045  RH  038%=      5-min Rain = 0
KWOS 042133Z 34009G15KT 19/05 A3008 RMK A01 T01940046  RH  038%=      5-min Rain = 0
KWOS 042134Z 01013KT 20/05 A3008 RMK A01 T01960051  RH  038%=      5-min Rain = 0
KWOS 042135Z 36011KT 20/05 A3008 RMK A01 T01980050  RH  038%=      5-min Rain = 0
KWOS 042136Z 01010KT 20/05 A3008 RMK A01 T01990051  RH  038%=      5-min Rain = 0
KWOS 042137Z 02009KT 20/05 A3008 RMK A01 T01990049  RH  037%=      5-min Rain = 0
KWOS 042138Z 03008KT 20/05 A3008 RMK A01 T01970051  RH  038%=      5-min Rain = 0
KWOS 042139Z 03007KT 19/05 A3008 RMK A01 T01940052  RH  039%=      5-min Rain = 0
KWOS 042140Z 04005KT 19/05 A3008 RMK A01 T01940049  RH  039%=      5-min Rain = 0
KWOS 042141Z 05004KT 19/05 A3008 RMK A01 T01930049  RH  039%=      5-min Rain = 0
KWOS 042142Z 00009KT 19/05 A3008 RMK A01 T01930053  RH  040%=      5-min Rain = 0
KWOS 042143Z 36009KT 20/05 A3008 RMK A01 T01950048  RH  038%=      5-min Rain = 0
KWOS 042144Z 00006KT 20/05 A3008 RMK A01 T01950048  RH  038%=      5-min Rain = 0
KWOS 042145Z 36003KT 20/05 A3008 RMK A01 T01950048  RH  038%=      5-min Rain = 0
KWOS 042146Z 01003KT 20/05 A3008 RMK A01 T01950048  RH  038%=      5-min Rain = 0
KWOS 042147Z 04006KT 20/05 A3008 RMK A01 T01960051  RH  039%=      5-min Rain = 0
KWOS 042148Z 03007KT 20/06 A3008 RMK A01 T01970057  RH  040%=      5-min Rain = 0
KWOS 042149Z 01007KT 20/05 A3008 RMK A01 T01990052  RH  038%=      5-min Rain = 0
KWOS 042150Z 34009KT 20/05 A3008 RMK A01 T01990051  RH  038%=      5-min Rain = 0
KWOS 042151Z 32008KT 20/05 A3008 RMK A01 T01990046  RH  037%=      5-min Rain = 0
KWOS 042152Z 33007KT 20/04 A3008 RMK A01 T01990044  RH  036%=      5-min Rain = 0
KWOS 042153Z 34006KT 20/04 A3008 RMK A01 T01960044  RH  037%=      5-min Rain = 0
KWOS 042154Z 02010G15KT 20/05 A3008 RMK A01 T01950048  RH  038%=      5-min Rain = 0
KWOS 042155Z 02010KT 20/05 A3008 RMK A01 T01950053  RH  039%=      5-min Rain = 0
KWOS 042156Z 02011KT 20/06 A3008 RMK A01 T01950055  RH  040%=      5-min Rain = 0
KWOS 042157Z 02010KT 20/05 A3008 RMK A01 T01960052  RH  039%=      5-min Rain = 0
KWOS 042158Z 01008KT 19/05 A3008 RMK A01 T01920049  RH  039%=      5-min Rain = 0
KWOS 042159Z 36005KT 19/05 A3008 RMK A01 T01890047  RH  039%=      5-min Rain = 0
KWOS 042200Z 34004KT 19/05 A3008 RMK A01 T01880046  RH  039%=      5-min Rain = 0
KWOS 042201Z 04004KT 19/05 A3008 RMK A01 T01870046  RH  039%=      5-min Rain = 0
KWOS 042202Z 05006KT 19/05 A3008 RMK A01 T01870048  RH  040%=      5-min Rain = 0
KWOS 042203Z 06006KT 19/05 A3008 RMK A01 T01870047  RH  040%=      5-min Rain = 0
KWOS 042204Z 02010G15KT 19/05 A3008 RMK A01 T01880048  RH  040%=      5-min Rain = 0
KWOS 042205Z 01009KT 19/05 A3008 RMK A01 T01900047  RH  039%=      5-min Rain = 0
KWOS 042206Z 02006KT 19/05 A3008 RMK A01 T01900046  RH  039%=      5-min Rain = 0
KWOS 042207Z 01005G10KT 19/05 A3008 RMK A01 T01890047  RH  039%=      5-min Rain = 0
KWOS 042208Z 00007KT 19/05 A3008 RMK A01 T01910048  RH  039%=      5-min Rain = 0
KWOS 042209Z 00005KT 19/05 A3008 RMK A01 T01920050  RH  039%=      5-min Rain = 0
KWOS 042210Z 34010KT 20/05 A3008 RMK A01 T01960048  RH  038%=      5-min Rain = 0
KWOS 042211Z 34007KT 20/04 A3008 RMK A01 T01970044  RH  036%=      5-min Rain = 0
KWOS 042212Z 34010KT 20/04 A3008 RMK A01 T01960044  RH  037%=      5-min Rain = 0
KWOS 042213Z 32008KT 20/04 A3008 RMK A01 T01950044  RH  037%=      5-min Rain = 0
KWOS 042214Z 31006KT 20/04 A3007 RMK A01 T01950043  RH  037%=      5-min Rain = 0
KWOS 042215Z 02008KT 19/05 A3007 RMK A01 T01940046  RH  038%=      5-min Rain = 0
KWOS 042216Z 02008KT 20/05 A3007 RMK A01 T01950046  RH  037%=      5-min Rain = 0
KWOS 042217Z 01007KT 20/05 A3007 RMK A01 T01960047  RH  037%=      5-min Rain = 0
KWOS 042218Z 00006KT 20/04 A3007 RMK A01 T01960044  RH  037%=      5-min Rain = 0
KWOS 042219Z 02002KT 19/04 A3007 RMK A01 T01940043  RH  037%=      5-min Rain = 0
KWOS 042220Z 01002KT 19/04 A3007 RMK A01 T01930044  RH  037%=      5-min Rain = 0
KWOS 042221Z 34003KT 19/04 A3007 RMK A01 T01930043  RH  037%=      5-min Rain = 0
KWOS 042222Z 34003G8KT 20/05 A3007 RMK A01 T01950045  RH  037%=      5-min Rain = 0
KWOS 042223Z 33005KT 20/05 A3007 RMK A01 T01970045  RH  037%=      5-min Rain = 0
KWOS 042224Z 34002KT 20/04 A3007 RMK A01 T01980044  RH  036%=      5-min Rain = 0
KWOS 042225Z 31002KT 20/04 A3007 RMK A01 T01970044  RH  037%=      5-min Rain = 0
KWOS 042226Z 33002KT 20/05 A3007 RMK A01 T01970045  RH  037%=      5-min Rain = 0
KWOS 042227Z 02001KT 20/05 A3007 RMK A01 T01990046  RH  036%=      5-min Rain = 0
KWOS 042228Z 04003KT 20/05 A3007 RMK A01 T02000050  RH  037%=      5-min Rain = 0
KWOS 042229Z 05005KT 20/05 A3007 RMK A01 T02000052  RH  038%=      5-min Rain = 0
KWOS 042230Z 03006KT 20/05 A3007 RMK A01 T02010054  RH  038%=      5-min Rain = 0
KWOS 042231Z 02006KT 20/05 A3007 RMK A01 T02010052  RH  037%=      5-min Rain = 0
KWOS 042232Z 01006KT 20/05 A3007 RMK A01 T01990049  RH  037%=      5-min Rain = 0
KWOS 042233Z 04007KT 20/05 A3007 RMK A01 T01970046  RH  037%=      5-min Rain = 0
KWOS 042234Z 06005KT 20/05 A3007 RMK A01 T01960047  RH  038%=      5-min Rain = 0
KWOS 042235Z 06004KT 20/05 A3007 RMK A01 T01960047  RH  038%=      5-min Rain = 0
KWOS 042236Z 05007KT 20/05 A3007 RMK A01 T01970047  RH  037%=      5-min Rain = 0
KWOS 042237Z 05006KT 20/05 A3007 RMK A01 T01980048  RH  037%=      5-min Rain = 0
KWOS 042238Z 04003KT 20/05 A3007 RMK A01 T01970046  RH  037%=      5-min Rain = 0
KWOS 042239Z 02008KT 20/05 A3007 RMK A01 T01960048  RH  038%=      5-min Rain = 0
KWOS 042240Z 01008KT 20/05 A3007 RMK A01 T01980048  RH  037%=      5-min Rain = 0
KWOS 042241Z 02007KT 20/05 A3007 RMK A01 T02000049  RH  037%=      5-min Rain = 0
KWOS 042242Z 02005KT 20/05 A3007 RMK A01 T01990053  RH  038%=      5-min Rain = 0
KWOS 042243Z 01005KT 20/05 A3007 RMK A01 T02010049  RH  037%=      5-min Rain = 0
KWOS 042244Z 01007KT 20/05 A3007 RMK A01 T02000045  RH  036%=      5-min Rain = 0
KWOS 042245Z 01012KT 20/05 A3007 RMK A01 T01990048  RH  037%=      5-min Rain = 0
KWOS 042246Z 01008KT 20/05 A3007 RMK A01 T01990045  RH  036%=      5-min Rain = 0
KWOS 042247Z 02005KT 20/04 A3007 RMK A01 T01980043  RH  036%=      5-min Rain = 0
KWOS 042248Z 03006KT 20/05 A3007 RMK A01 T01960046  RH  037%=      5-min Rain = 0
KWOS 042249Z 03006KT 20/05 A3007 RMK A01 T01970045  RH  037%=      5-min Rain = 0
KWOS 042250Z 04006KT 20/04 A3007 RMK A01 T01970044  RH  036%=      5-min Rain = 0
KWOS 042251Z 02007KT 20/05 A3007 RMK A01 T01970048  RH  038%=      5-min Rain = 0
KWOS 042252Z 02009KT 20/05 A3007 RMK A01 T02000050  RH  037%=      5-min Rain = 0
KWOS 042253Z 03009KT 20/05 A3007 RMK A01 T02020049  RH  037%=      5-min Rain = 0
KWOS 042254Z 01008KT 20/05 A3007 RMK A01 T02010048  RH  037%=      5-min Rain = 0
KWOS 042255Z 36007KT 20/04 A3007 RMK A01 T02010042  RH  035%=      5-min Rain = 0
KWOS 042256Z 02004KT 20/04 A3007 RMK A01 T01990041  RH  035%=      5-min Rain = 0
KWOS 042257Z 06003KT 20/04 A3007 RMK A01 T01970040  RH  036%=      5-min Rain = 0
KWOS 042258Z 11003KT 20/04 A3007 RMK A01 T01950039  RH  035%=      5-min Rain = 0
KWOS 042259Z 01006KT 20/04 A3007 RMK A01 T01950042  RH  036%=      5-min Rain = 0
KWOS 042300Z 00006KT 20/04 A3007 RMK A01 T01970041  RH  036%=      5-min Rain = 0
KWOS 042301Z 35005KT 20/04 A3007 RMK A01 T01970040  RH  035%=      5-min Rain = 0
KWOS 042302Z 00005KT 20/04 A3007 RMK A01 T01950039  RH  036%=      5-min Rain = 0
KWOS 042303Z 34005KT 20/04 A3007 RMK A01 T01950041  RH  036%=      5-min Rain = 0
KWOS 042304Z 32005KT 20/04 A3007 RMK A01 T01960039  RH  035%=      5-min Rain = 0
KWOS 042305Z 30004KT 20/04 A3007 RMK A01 T01960039  RH  036%=      5-min Rain = 0
KWOS 042306Z 27004KT 20/04 A3007 RMK A01 T01960040  RH  036%=      5-min Rain = 0
KWOS 042307Z 26003KT 20/04 A3007 RMK A01 T01960041  RH  036%=      5-min Rain = 0
KWOS 042308Z 28002KT 20/04 A3007 RMK A01 T01970040  RH  035%=      5-min Rain = 0
KWOS 042309Z 27002KT 20/04 A3007 RMK A01 T01970039  RH  035%=      5-min Rain = 0
KWOS 042310Z 07001KT 20/04 A3007 RMK A01 T01970041  RH  036%=      5-min Rain = 0
KWOS 042311Z 02003KT 20/04 A3007 RMK A01 T01990041  RH  035%=      5-min Rain = 0
KWOS 042312Z 04007KT 20/05 A3007 RMK A01 T02000045  RH  036%=      5-min Rain = 0
KWOS 042313Z 07007KT 20/04 A3007 RMK A01 T02020044  RH  035%=      5-min Rain = 0
KWOS 042314Z 05006KT 20/05 A3007 RMK A01 T02020046  RH  036%=      5-min Rain = 0
KWOS 042315Z 04006KT 20/05 A3007 RMK A01 T02020047  RH  036%=      5-min Rain = 0
KWOS 042316Z 04006KT 20/05 A3007 RMK A01 T02020048  RH  036%=      5-min Rain = 0
KWOS 042317Z 04005KT 20/04 A3007 RMK A01 T02010044  RH  036%=      5-min Rain = 0
KWOS 042318Z 04003KT 20/04 A3007 RMK A01 T01990041  RH  035%=      5-min Rain = 0
KWOS 042319Z 05004KT 20/04 A3007 RMK A01 T01980041  RH  036%=      5-min Rain = 0
KWOS 042320Z 06003KT 20/04 A3007 RMK A01 T01970041  RH  036%=      5-min Rain = 0
KWOS 042321Z 03005KT 20/04 A3007 RMK A01 T01970043  RH  036%=      5-min Rain = 0
KWOS 042322Z 02009KT 20/05 A3007 RMK A01 T01990053  RH  038%=      5-min Rain = 0
KWOS 042323Z 02011KT 20/05 A3007 RMK A01 T02010047  RH  036%=      5-min Rain = 0
KWOS 042324Z 02010KT 20/05 A3007 RMK A01 T02000048  RH  037%=      5-min Rain = 0
KWOS 042325Z 03009KT 20/05 A3007 RMK A01 T01990045  RH  036%=      5-min Rain = 0
KWOS 042326Z 03007KT 20/04 A3007 RMK A01 T01980044  RH  036%=      5-min Rain = 0
KWOS 042327Z 03006KT 20/05 A3007 RMK A01 T01980053  RH  039%=      5-min Rain = 0
KWOS 042328Z 01007KT 20/05 A3007 RMK A01 T02000053  RH  038%=      5-min Rain = 0
KWOS 042329Z 35008KT 20/04 A3007 RMK A01 T02020044  RH  035%=      5-min Rain = 0
KWOS 042330Z 01007KT 20/04 A3007 RMK A01 T02010040  RH  035%=      5-min Rain = 0
KWOS 042331Z 03007KT 20/04 A3007 RMK A01 T02000044  RH  036%=      5-min Rain = 0
KWOS 042332Z 01005KT 20/04 A3007 RMK A01 T01980042  RH  036%=      5-min Rain = 0
KWOS 042333Z 34004KT 20/04 A3007 RMK A01 T01970040  RH  035%=      5-min Rain = 0
KWOS 042334Z 34003KT 20/04 A3007 RMK A01 T01970039  RH  035%=      5-min Rain = 0
KWOS 042335Z 32005KT 20/04 A3007 RMK A01 T01960040  RH  035%=      5-min Rain = 0
KWOS 042336Z 31004KT 20/04 A3007 RMK A01 T01970040  RH  035%=      5-min Rain = 0
KWOS 042337Z 32002KT 20/04 A3007 RMK A01 T01980039  RH  035%=      5-min Rain = 0
KWOS 042338Z 30003KT 20/04 A3007 RMK A01 T01990041  RH  035%=      5-min Rain = 0
KWOS 042339Z 31003KT 20/04 A3007 RMK A01 T02010041  RH  035%=      5-min Rain = 0
KWOS 042340Z 33002KT 20/04 A3007 RMK A01 T02020042  RH  035%=      5-min Rain = 0
KWOS 042341Z 02001KT 20/04 A3007 RMK A01 T02030042  RH  035%=      5-min Rain = 0
KWOS 042342Z 29002KT 20/04 A3007 RMK A01 T02040040  RH  034%=      5-min Rain = 0
KWOS 042343Z 27002KT 20/04 A3007 RMK A01 T02030040  RH  034%=      5-min Rain = 0
KWOS 042344Z 26003KT 20/04 A3007 RMK A01 T02020039  RH  034%=      5-min Rain = 0
KWOS 042345Z 25003KT 20/04 A3007 RMK A01 T02010039  RH  034%=      5-min Rain = 0
KWOS 042346Z 26002KT 20/04 A3007 RMK A01 T01990038  RH  035%=      5-min Rain = 0
KWOS 042347Z 28001KT 20/04 A3007 RMK A01 T01980039  RH  035%=      5-min Rain = 0
KWOS 042348Z 31001KT 20/04 A3007 RMK A01 T01990039  RH  035%=      5-min Rain = 0
KWOS 042349Z 31001KT 20/04 A3007 RMK A01 T02000040  RH  035%=      5-min Rain = 0
KWOS 042350Z 31002KT 20/04 A3007 RMK A01 T02010040  RH  035%=      5-min Rain = 0
KWOS 042351Z 34003KT 20/04 A3007 RMK A01 T02020039  RH  034%=      5-min Rain = 0
KWOS 042352Z 01005KT 20/04 A3007 RMK A01 T02020042  RH  035%=      5-min Rain = 0
KWOS 042353Z 03006KT 20/05 A3007 RMK A01 T02020046  RH  036%=      5-min Rain = 0
KWOS 042354Z 03006KT 20/05 A3007 RMK A01 T02010048  RH  037%=      5-min Rain = 0
KWOS 042355Z 04006KT 20/04 A3007 RMK A01 T02010044  RH  036%=      5-min Rain = 0
KWOS 042356Z 03005KT 20/04 A3007 RMK A01 T02000044  RH  036%=      5-min Rain = 0
KWOS 042357Z 02004KT 20/04 A3007 RMK A01 T01990040  RH  035%=      5-min Rain = 0
KWOS 042358Z 01003KT 20/04 A3007 RMK A01 T01970039  RH  035%=      5-min Rain = 0
KWOS 042359Z 34003KT 20/04 A3007 RMK A01 T01970039  RH  035%=      5-min Rain = 0
KWOS 050000Z 33002KT 20/04 A3007 RMK A01 T01960038  RH  035%=      5-min Rain = 0
KWOS 050001Z 30002KT 20/04 A3007 RMK A01 T01960038  RH  035%=      5-min Rain = 0
KWOS 050002Z 26003KT 20/04 A3007 RMK A01 T01970038  RH  035%=      5-min Rain = 0
KWOS 050003Z 32002KT 20/04 A3007 RMK A01 T01970038  RH  035%=      5-min Rain = 0
KWOS 050004Z 03006KT 20/04 A3007 RMK A01 T01980042  RH  036%=      5-min Rain = 0
KWOS 050005Z 01006KT 20/04 A3007 RMK A01 T01980041  RH  035%=      5-min Rain = 0
KWOS 050006Z 01006KT 20/04 A3007 RMK A01 T01970039  RH  035%=      5-min Rain = 0
KWOS 050007Z 02006KT 20/04 A3007 RMK A01 T01960041  RH  036%=      5-min Rain = 0
KWOS 050008Z 02005KT 20/04 A3007 RMK A01 T01960039  RH  035%=      5-min Rain = 0
KWOS 050009Z 01005KT 20/04 A3007 RMK A01 T01960039  RH  035%=      5-min Rain = 0
KWOS 050010Z 01005KT 20/04 A3007 RMK A01 T01960040  RH  036%=      5-min Rain = 0
KWOS 050011Z 02005KT 20/04 A3007 RMK A01 T01960040  RH  036%=      5-min Rain = 0
KWOS 050012Z 00005KT 20/04 A3007 RMK A01 T01960040  RH  036%=      5-min Rain = 0
KWOS 050013Z 01004KT 20/04 A3007 RMK A01 T01950038  RH  035%=      5-min Rain = 0
KWOS 050014Z 02004KT 20/04 A3007 RMK A01 T01950039  RH  036%=      5-min Rain = 0
KWOS 050015Z 01003KT 20/04 A3007 RMK A01 T01950038  RH  036%=      5-min Rain = 0
KWOS 050016Z 00002KT 19/04 A3007 RMK A01 T01940037  RH  035%=      5-min Rain = 0
KWOS 050017Z 08002KT 20/04 A3007 RMK A01 T01950038  RH  035%=      5-min Rain = 0
KWOS 050018Z 06002KT 20/04 A3007 RMK A01 T01960038  RH  035%=      5-min Rain = 0
KWOS 050019Z 00004KT 20/04 A3007 RMK A01 T01960039  RH  035%=      5-min Rain = 0
KWOS 050020Z 02003KT 20/04 A3007 RMK A01 T01970038  RH  035%=      5-min Rain = 0
KWOS 050021Z 33002KT 20/04 A3007 RMK A01 T01960038  RH  035%=      5-min Rain = 0
KWOS 050022Z 32002KT 20/04 A3007 RMK A01 T01960038  RH  035%=      5-min Rain = 0
KWOS 050023Z 31004KT 20/04 A3007 RMK A01 T01960039  RH  035%=      5-min Rain = 0
KWOS 050024Z 32003KT 20/04 A3007 RMK A01 T01970037  RH  035%=      5-min Rain = 0
KWOS 050025Z 30002KT 20/04 A3007 RMK A01 T01970038  RH  035%=      5-min Rain = 0
KWOS 050026Z 29002KT 20/04 A3007 RMK A01 T01970038  RH  035%=      5-min Rain = 0
KWOS 050027Z 31003KT 20/04 A3007 RMK A01 T01970037  RH  035%=      5-min Rain = 0
KWOS 050028Z 35002KT 20/04 A3007 RMK A01 T01960038  RH  035%=      5-min Rain = 0
KWOS 050029Z 03002KT 20/04 A3007 RMK A01 T01960039  RH  035%=      5-min Rain = 0
KWOS 050030Z 04002KT 20/04 A3007 RMK A01 T01960039  RH  035%=      5-min Rain = 0
KWOS 050031Z 04003KT 20/04 A3007 RMK A01 T01960039  RH  035%=      5-min Rain = 0
KWOS 050032Z 03003KT 20/04 A3007 RMK A01 T01960042  RH  036%=      5-min Rain = 0
KWOS 050033Z 03004KT 20/04 A3007 RMK A01 T01960043  RH  036%=      5-min Rain = 0
KWOS 050034Z 35002KT 20/04 A3007 RMK A01 T01960038  RH  035%=      5-min Rain = 0
KWOS 050035Z 35001KT 20/04 A3007 RMK A01 T01950037  RH  035%=      5-min Rain = 0
KWOS 050036Z 35001KT 20/04 A3007 RMK A01 T01950038  RH  035%=      5-min Rain = 0
KWOS 050037Z 04004KT 20/04 A3007 RMK A01 T01950040  RH  036%=      5-min Rain = 0
KWOS 050038Z 04005KT 20/04 A3007 RMK A01 T01950041  RH  036%=      5-min Rain = 0
KWOS 050039Z 04004KT 20/04 A3007 RMK A01 T01950042  RH  036%=      5-min Rain = 0
KWOS 050040Z 04004KT 20/04 A3007 RMK A01 T01950041  RH  036%=      5-min Rain = 0
KWOS 050041Z 04004KT 19/04 A3007 RMK A01 T01940044  RH  037%=      5-min Rain = 0
KWOS 050042Z 06003KT 19/04 A3007 RMK A01 T01940040  RH  036%=      5-min Rain = 0
KWOS 050043Z 05003KT 19/04 A3007 RMK A01 T01940041  RH  036%=      5-min Rain = 0
KWOS 050044Z 03003KT 19/04 A3007 RMK A01 T01940043  RH  037%=      5-min Rain = 0
KWOS 050045Z 01003KT 19/04 A3007 RMK A01 T01930040  RH  036%=      5-min Rain = 0
KWOS 050046Z 01003KT 19/04 A3007 RMK A01 T01930038  RH  036%=      5-min Rain = 0
KWOS 050047Z 00002KT 19/04 A3007 RMK A01 T01930037  RH  036%=      5-min Rain = 0
KWOS 050048Z 04001KT 19/04 A3007 RMK A01 T01930036  RH  035%=      5-min Rain = 0
KWOS 050049Z 05001KT 19/04 A3008 RMK A01 T01930036  RH  035%=      5-min Rain = 0
KWOS 050050Z 12001KT 19/04 A3008 RMK A01 T01930036  RH  035%=      5-min Rain = 0
KWOS 050051Z 13000KT 19/04 A3008 RMK A01 T01930036  RH  035%=      5-min Rain = 0
KWOS 050052Z 15000KT 19/04 A3007 RMK A01 T01930035  RH  035%=      5-min Rain = 0
KWOS 050053Z 14000KT 19/04 A3007 RMK A01 T01930035  RH  035%=      5-min Rain = 0
KWOS 050054Z 18001KT 19/04 A3007 RMK A01 T01940035  RH  035%=      5-min Rain = 0
KWOS 050055Z 17000KT 19/04 A3008 RMK A01 T01940036  RH  035%=      5-min Rain = 0
KWOS 050056Z 10000KT 20/04 A3008 RMK A01 T01950037  RH  035%=      5-min Rain = 0
KWOS 050057Z 08002KT 20/04 A3008 RMK A01 T01960037  RH  035%=      5-min Rain = 0
KWOS 050058Z 06002KT 20/04 A3008 RMK A01 T01960039  RH  035%=      5-min Rain = 0
KWOS 050059Z 06002KT 20/04 A3008 RMK A01 T01960038  RH  035%=      5-min Rain = 0
KWOS 050100Z 06002KT 20/04 A3008 RMK A01 T01950038  RH  035%=      5-min Rain = 0
KWOS 050101Z 07003KT 19/04 A3008 RMK A01 T01940039  RH  036%=      5-min Rain = 0
KWOS 050102Z 07003KT 19/04 A3008 RMK A01 T01930038  RH  036%=      5-min Rain = 0
KWOS 050103Z 07004KT 19/04 A3008 RMK A01 T01920040  RH  036%=      5-min Rain = 0
KWOS 050104Z 07004KT 19/04 A3008 RMK A01 T01920038  RH  036%=      5-min Rain = 0
KWOS 050105Z 08003KT 19/04 A3008 RMK A01 T01910037  RH  036%=      5-min Rain = 0
KWOS 050106Z 08002KT 19/04 A3008 RMK A01 T01910036  RH  036%=      5-min Rain = 0
KWOS 050107Z 06002KT 19/04 A3008 RMK A01 T01900039  RH  037%=      5-min Rain = 0
KWOS 050108Z 08002KT 19/04 A3008 RMK A01 T01900043  RH  038%=      5-min Rain = 0
KWOS 050109Z 07002KT 19/04 A3008 RMK A01 T01900041  RH  037%=      5-min Rain = 0
KWOS 050110Z 08003KT 19/04 A3008 RMK A01 T01900044  RH  038%=      5-min Rain = 0
KWOS 050111Z 07003KT 19/04 A3008 RMK A01 T01890037  RH  036%=      5-min Rain = 0
KWOS 050112Z 09003KT 19/04 A3008 RMK A01 T01890037  RH  036%=      5-min Rain = 0
KWOS 050113Z 06003KT 19/04 A3008 RMK A01 T01890037  RH  036%=      5-min Rain = 0
KWOS 050114Z 09003KT 19/04 A3008 RMK A01 T01890037  RH  036%=      5-min Rain = 0
KWOS 050115Z 09003KT 19/04 A3008 RMK A01 T01880037  RH  037%=      5-min Rain = 0
KWOS 050116Z 10004KT 19/04 A3008 RMK A01 T01880036  RH  036%=      5-min Rain = 0
KWOS 050117Z 11004KT 19/04 A3008 RMK A01 T01870036  RH  037%=      5-min Rain = 0
KWOS 050118Z 11004KT 19/04 A3008 RMK A01 T01860035  RH  037%=      5-min Rain = 0
KWOS 050119Z 10004KT 19/04 A3008 RMK A01 T01860035  RH  037%=      5-min Rain = 0
KWOS 050120Z 11005KT 19/04 A3008 RMK A01 T01850035  RH  037%=      5-min Rain = 0
KWOS 050121Z 10005KT 18/04 A3008 RMK A01 T01840036  RH  037%=      5-min Rain = 0
KWOS 050122Z 10004KT 18/04 A3008 RMK A01 T01830036  RH  038%=      5-min Rain = 0
KWOS 050123Z 11004KT 18/04 A3008 RMK A01 T01830036  RH  038%=      5-min Rain = 0
KWOS 050124Z 11004KT 18/04 A3008 RMK A01 T01820036  RH  038%=      5-min Rain = 0
KWOS 050125Z 11005KT 18/04 A3009 RMK A01 T01810037  RH  038%=      5-min Rain = 0
KWOS 050126Z 11005KT 18/04 A3009 RMK A01 T01810037  RH  038%=      5-min Rain = 0
KWOS 050127Z 11005KT 18/04 A3009 RMK A01 T01800037  RH  039%=      5-min Rain = 0
KWOS 050128Z 12005KT 18/04 A3009 RMK A01 T01790036  RH  038%=      5-min Rain = 0
KWOS 050129Z 11005KT 18/04 A3009 RMK A01 T01800036  RH  038%=      5-min Rain = 0
KWOS 050130Z 11005KT 18/04 A3009 RMK A01 T01800035  RH  038%=      5-min Rain = 0
KWOS 050131Z 11004KT 18/04 A3009 RMK A01 T01800036  RH  038%=      5-min Rain = 0
KWOS 050132Z 11004KT 18/04 A3009 RMK A01 T01800036  RH  038%=      5-min Rain = 0
KWOS 050133Z 10004KT 18/04 A3009 RMK A01 T01800036  RH  038%=      5-min Rain = 0
KWOS 050134Z 10005KT 18/04 A3009 RMK A01 T01790036  RH  038%=      5-min Rain = 0
KWOS 050135Z 09006KT 18/04 A3009 RMK A01 T01780035  RH  039%=      5-min Rain = 0
KWOS 050136Z 09005KT 18/04 A3009 RMK A01 T01770035  RH  039%=      5-min Rain = 0
KWOS 050137Z 10005KT 18/04 A3009 RMK A01 T01770035  RH  039%=      5-min Rain = 0
KWOS 050138Z 10004KT 18/04 A3009 RMK A01 T01770035  RH  039%=      5-min Rain = 0
KWOS 050139Z 10005KT 18/04 A3009 RMK A01 T01770035  RH  039%=      5-min Rain = 0
KWOS 050140Z 10004KT 18/04 A3009 RMK A01 T01770036  RH  039%=      5-min Rain = 0
KWOS 050141Z 11004KT 18/04 A3009 RMK A01 T01760036  RH  039%=      5-min Rain = 0
KWOS 050142Z 11004KT 18/04 A3009 RMK A01 T01750036  RH  040%=      5-min Rain = 0
KWOS 050143Z 11004KT 17/04 A3009 RMK A01 T01730036  RH  040%=      5-min Rain = 0
KWOS 050144Z 11004KT 17/04 A3009 RMK A01 T01720036  RH  040%=      5-min Rain = 0
KWOS 050145Z 11004KT 17/04 A3009 RMK A01 T01720036  RH  040%=      5-min Rain = 0
KWOS 050146Z 11004KT 17/04 A3009 RMK A01 T01710036  RH  040%=      5-min Rain = 0
KWOS 050147Z 11004KT 17/04 A3009 RMK A01 T01710036  RH  041%=      5-min Rain = 0
KWOS 050148Z 10004KT 17/04 A3009 RMK A01 T01710036  RH  041%=      5-min Rain = 0
KWOS 050149Z 10004KT 17/04 A3009 RMK A01 T01700035  RH  041%=      5-min Rain = 0
KWOS 050150Z 10004KT 17/04 A3009 RMK A01 T01690035  RH  041%=      5-min Rain = 0
KWOS 050151Z 09004KT 17/04 A3009 RMK A01 T01680036  RH  041%=      5-min Rain = 0
KWOS 050152Z 09004KT 17/04 A3009 RMK A01 T01670036  RH  042%=      5-min Rain = 0
KWOS 050153Z 09004KT 17/04 A301 RMK A01 T01670036  RH  042%=      5-min Rain = 0
KWOS 050154Z 09004KT 17/04 A301 RMK A01 T01660037  RH  042%=      5-min Rain = 0
KWOS 050155Z 09004KT 17/04 A301 RMK A01 T01660037  RH  042%=      5-min Rain = 0
KWOS 050156Z 09004KT 17/04 A301 RMK A01 T01660037  RH  042%=      5-min Rain = 0
KWOS 050157Z 10004KT 17/04 A301 RMK A01 T01660037  RH  042%=      5-min Rain = 0
KWOS 050158Z 10004KT 17/04 A301 RMK A01 T01660037  RH  042%=      5-min Rain = 0
KWOS 050159Z 10004KT 17/04 A301 RMK A01 T01660037  RH  042%=      5-min Rain = 0
KWOS 050200Z 10004KT 17/04 A301 RMK A01 T01660037  RH  042%=      5-min Rain = 0
KWOS 050201Z 10004KT 17/04 A301 RMK A01 T01670036  RH  042%=      5-min Rain = 0
KWOS 050202Z 10004KT 17/04 A301 RMK A01 T01680036  RH  041%=      5-min Rain = 0
KWOS 050203Z 10004KT 17/04 A301 RMK A01 T01680036  RH  041%=      5-min Rain = 0
KWOS 050204Z 10004KT 17/04 A301 RMK A01 T01670036  RH  041%=      5-min Rain = 0
KWOS 050205Z 11005KT 17/04 A301 RMK A01 T01650037  RH  042%=      5-min Rain = 0
KWOS 050206Z 11005KT 16/04 A301 RMK A01 T01630036  RH  043%=      5-min Rain = 0
KWOS 050207Z 11005KT 16/04 A301 RMK A01 T01620035  RH  043%=      5-min Rain = 0
KWOS 050208Z 11005KT 16/03 A301 RMK A01 T01610034  RH  043%=      5-min Rain = 0
KWOS 050209Z 11005KT 16/03 A301 RMK A01 T01600034  RH  043%=      5-min Rain = 0
KWOS 050210Z 10005KT 16/03 A301 RMK A01 T01600034  RH  043%=      5-min Rain = 0
KWOS 050211Z 10006KT 16/03 A301 RMK A01 T01600034  RH  043%=      5-min Rain = 0
KWOS 050212Z 10006KT 16/03 A301 RMK A01 T01600034  RH  043%=      5-min Rain = 0
KWOS 050213Z 10006KT 16/03 A301 RMK A01 T01600034  RH  043%=      5-min Rain = 0
KWOS 050214Z 10006KT 16/03 A301 RMK A01 T01600034  RH  043%=      5-min Rain = 0
KWOS 050215Z 10006KT 16/03 A301 RMK A01 T01600034  RH  043%=      5-min Rain = 0
KWOS 050216Z 10006KT 16/03 A301 RMK A01 T01600034  RH  043%=      5-min Rain = 0
KWOS 050217Z 11006KT 16/03 A301 RMK A01 T01600033  RH  043%=      5-min Rain = 0
KWOS 050218Z 11006KT 16/03 A301 RMK A01 T01600033  RH  043%=      5-min Rain = 0
KWOS 050219Z 11006KT 16/03 A301 RMK A01 T01600034  RH  043%=      5-min Rain = 0
KWOS 050220Z 10005KT 16/04 A301 RMK A01 T01600035  RH  043%=      5-min Rain = 0
KWOS 050221Z 11005KT 16/04 A3011 RMK A01 T01600035  RH  043%=      5-min Rain = 0
KWOS 050222Z 11005KT 16/03 A3011 RMK A01 T01590034  RH  043%=      5-min Rain = 0
KWOS 050223Z 11004KT 16/03 A3011 RMK A01 T01580034  RH  043%=      5-min Rain = 0
KWOS 050224Z 11005KT 16/04 A3011 RMK A01 T01570036  RH  044%=      5-min Rain = 0
KWOS 050225Z 11005KT 16/04 A3011 RMK A01 T01550035  RH  045%=      5-min Rain = 0
KWOS 050226Z 12005KT 15/03 A3011 RMK A01 T01530034  RH  045%=      5-min Rain = 0
KWOS 050227Z 12005KT 15/04 A3011 RMK A01 T01530035  RH  045%=      5-min Rain = 0
KWOS 050228Z 12005KT 15/04 A3011 RMK A01 T01530035  RH  045%=      5-min Rain = 0
KWOS 050229Z 11005KT 15/03 A3011 RMK A01 T01520033  RH  045%=      5-min Rain = 0
KWOS 050230Z 11006KT 15/03 A3011 RMK A01 T01510033  RH  045%=      5-min Rain = 0
KWOS 050231Z 11005KT 15/03 A3011 RMK A01 T01490033  RH  046%=      5-min Rain = 0
KWOS 050232Z 11005KT 15/03 A3011 RMK A01 T01480034  RH  046%=      5-min Rain = 0
KWOS 050233Z 11005KT 15/03 A3011 RMK A01 T01470034  RH  047%=      5-min Rain = 0
KWOS 050234Z 11006KT 15/03 A3011 RMK A01 T01460034  RH  047%=      5-min Rain = 0
KWOS 050235Z 11006KT 15/04 A3011 RMK A01 T01450035  RH  048%=      5-min Rain = 0
KWOS 050236Z 11006KT 14/04 A3011 RMK A01 T01440035  RH  048%=      5-min Rain = 0
KWOS 050237Z 12006KT 14/04 A3011 RMK A01 T01440035  RH  048%=      5-min Rain = 0
KWOS 050238Z 11007KT 14/04 A3011 RMK A01 T01440036  RH  048%=      5-min Rain = 0
KWOS 050239Z 12007KT 14/04 A3011 RMK A01 T01440035  RH  048%=      5-min Rain = 0
KWOS 050240Z 12007KT 14/04 A3011 RMK A01 T01440035  RH  048%=      5-min Rain = 0
KWOS 050241Z 12007KT 14/04 A3011 RMK A01 T01430035  RH  048%=      5-min Rain = 0
KWOS 050242Z 12007KT 14/04 A3011 RMK A01 T01430035  RH  048%=      5-min Rain = 0
KWOS 050243Z 12007KT 14/04 A3011 RMK A01 T01430035  RH  048%=      5-min Rain = 0
KWOS 050244Z 12007KT 14/04 A3011 RMK A01 T01430035  RH  048%=      5-min Rain = 0
KWOS 050245Z 12007KT 14/04 A3011 RMK A01 T01420036  RH  049%=      5-min Rain = 0
KWOS 050246Z 13007KT 14/04 A3011 RMK A01 T01410036  RH  049%=      5-min Rain = 0
KWOS 050247Z 13007KT 14/04 A3011 RMK A01 T01410036  RH  049%=      5-min Rain = 0
KWOS 050248Z 13007KT 14/04 A3011 RMK A01 T01410035  RH  049%=      5-min Rain = 0
KWOS 050249Z 13006KT 14/03 A3012 RMK A01 T01420034  RH  048%=      5-min Rain = 0
KWOS 050250Z 13006KT 14/03 A3012 RMK A01 T01430032  RH  047%=      5-min Rain = 0
KWOS 050251Z 12006KT 14/03 A3012 RMK A01 T01430031  RH  047%=      5-min Rain = 0
KWOS 050252Z 12007KT 14/03 A3012 RMK A01 T01430031  RH  047%=      5-min Rain = 0
KWOS 050253Z 09005KT 14/03 A3012 RMK A01 T01430031  RH  047%=      5-min Rain = 0
KWOS 050254Z 11006KT 14/03 A3012 RMK A01 T01410031  RH  047%=      5-min Rain = 0
KWOS 050255Z 11005KT 14/03 A3012 RMK A01 T01430031  RH  047%=      5-min Rain = 0
KWOS 050256Z 11006KT 15/03 A3012 RMK A01 T01450031  RH  046%=      5-min Rain = 0
KWOS 050257Z 11005KT 15/03 A3012 RMK A01 T01450032  RH  047%=      5-min Rain = 0
KWOS 050258Z 11005KT 15/03 A3012 RMK A01 T01450032  RH  047%=      5-min Rain = 0
KWOS 050259Z 11005KT 14/03 A3012 RMK A01 T01440032  RH  047%=      5-min Rain = 0
KWOS 050300Z 12005KT 14/03 A3012 RMK A01 T01430034  RH  048%=      5-min Rain = 0
KWOS 050301Z 11006KT 14/04 A3012 RMK A01 T01420035  RH  048%=      5-min Rain = 0
KWOS 050302Z 11005KT 14/03 A3012 RMK A01 T01420034  RH  048%=      5-min Rain = 0
KWOS 050303Z 11006KT 14/03 A3012 RMK A01 T01420034  RH  048%=      5-min Rain = 0
KWOS 050304Z 11006KT 14/03 A3012 RMK A01 T01420033  RH  048%=      5-min Rain = 0
KWOS 050305Z 11005KT 14/03 A3012 RMK A01 T01430032  RH  047%=      5-min Rain = 0
KWOS 050306Z 11005KT 14/03 A3012 RMK A01 T01430031  RH  047%=      5-min Rain = 0
KWOS 050307Z 11005KT 14/03 A3012 RMK A01 T01430031  RH  047%=      5-min Rain = 0
KWOS 050308Z 11005KT 14/03 A3012 RMK A01 T01430032  RH  047%=      5-min Rain = 0
KWOS 050309Z 11006KT 14/03 A3012 RMK A01 T01420034  RH  048%=      5-min Rain = 0
KWOS 050310Z 11005KT 14/04 A3012 RMK A01 T01410035  RH  049%=      5-min Rain = 0
KWOS 050311Z 11005KT 14/03 A3012 RMK A01 T01390033  RH  049%=      5-min Rain = 0
KWOS 050312Z 11006KT 14/03 A3012 RMK A01 T01390033  RH  049%=      5-min Rain = 0
KWOS 050313Z 12006KT 14/04 A3012 RMK A01 T01380035  RH  050%=      5-min Rain = 0
KWOS 050314Z 12006KT 14/04 A3012 RMK A01 T01370036  RH  050%=      5-min Rain = 0
KWOS 050315Z 12006KT 14/03 A3013 RMK A01 T01360034  RH  050%=      5-min Rain = 0
KWOS 050316Z 12006KT 14/03 A3013 RMK A01 T01350033  RH  050%=      5-min Rain = 0
KWOS 050317Z 12006KT 13/03 A3013 RMK A01 T01340033  RH  051%=      5-min Rain = 0
KWOS 050318Z 12006KT 13/03 A3013 RMK A01 T01340034  RH  051%=      5-min Rain = 0
KWOS 050319Z 13006KT 13/04 A3013 RMK A01 T01340035  RH  051%=      5-min Rain = 0
KWOS 050320Z 13006KT 13/04 A3013 RMK A01 T01340036  RH  051%=      5-min Rain = 0
KWOS 050321Z 15005KT 13/04 A3013 RMK A01 T01340036  RH  051%=      5-min Rain = 0
KWOS 050322Z 16004KT 13/03 A3013 RMK A01 T01340032  RH  050%=      5-min Rain = 0
KWOS 050323Z 14005KT 14/03 A3013 RMK A01 T01350031  RH  049%=      5-min Rain = 0
KWOS 050324Z 13006KT 14/03 A3013 RMK A01 T01370031  RH  048%=      5-min Rain = 0
KWOS 050325Z 13006KT 14/03 A3013 RMK A01 T01380032  RH  048%=      5-min Rain = 0
KWOS 050326Z 13006KT 14/03 A3013 RMK A01 T01380032  RH  049%=      5-min Rain = 0
KWOS 050327Z 13006KT 14/03 A3013 RMK A01 T01360032  RH  049%=      5-min Rain = 0
KWOS 050328Z 13006KT 13/03 A3013 RMK A01 T01340032  RH  050%=      5-min Rain = 0
KWOS 050329Z 13006KT 13/03 A3013 RMK A01 T01320032  RH  050%=      5-min Rain = 0
KWOS 050330Z 15006KT 13/03 A3013 RMK A01 T01310033  RH  051%=      5-min Rain = 0
KWOS 050331Z 16007KT 13/03 A3013 RMK A01 T01310031  RH  051%=      5-min Rain = 0
KWOS 050332Z 14007KT 13/03 A3013 RMK A01 T01330031  RH  050%=      5-min Rain = 0
KWOS 050333Z 13007KT 14/03 A3013 RMK A01 T01350031  RH  049%=      5-min Rain = 0
KWOS 050334Z 14006KT 14/03 A3013 RMK A01 T01360030  RH  049%=      5-min Rain = 0
KWOS 050335Z 13006KT 14/03 A3013 RMK A01 T01360031  RH  049%=      5-min Rain = 0
KWOS 050336Z 13006KT 13/03 A3013 RMK A01 T01340032  RH  050%=      5-min Rain = 0
KWOS 050337Z 13005KT 13/03 A3013 RMK A01 T01320033  RH  051%=      5-min Rain = 0
KWOS 050338Z 13005KT 13/03 A3013 RMK A01 T01310034  RH  052%=      5-min Rain = 0
KWOS 050339Z 14005KT 13/03 A3013 RMK A01 T01300034  RH  052%=      5-min Rain = 0
KWOS 050340Z 15006KT 13/03 A3013 RMK A01 T01290032  RH  052%=      5-min Rain = 0
KWOS 050341Z 15006KT 13/03 A3013 RMK A01 T01300031  RH  051%=      5-min Rain = 0
KWOS 050342Z 15006KT 13/03 A3013 RMK A01 T01310031  RH  050%=      5-min Rain = 0
KWOS 050343Z 14006KT 13/03 A3013 RMK A01 T01320030  RH  050%=      5-min Rain = 0
KWOS 050344Z 14006KT 13/03 A3013 RMK A01 T01320030  RH  050%=      5-min Rain = 0
KWOS 050345Z 14006KT 13/03 A3013 RMK A01 T01320031  RH  050%=      5-min Rain = 0
KWOS 050346Z 14007KT 13/03 A3013 RMK A01 T01310030  RH  051%=      5-min Rain = 0
KWOS 050347Z 14007KT 13/03 A3013 RMK A01 T01300030  RH  051%=      5-min Rain = 0
KWOS 050348Z 14007KT 13/03 A3013 RMK A01 T01300031  RH  051%=      5-min Rain = 0
KWOS 050349Z 14008KT 13/03 A3013 RMK A01 T01300031  RH  051%=      5-min Rain = 0
KWOS 050350Z 14007KT 13/03 A3013 RMK A01 T01300031  RH  051%=      5-min Rain = 0
KWOS 050351Z 14008KT 13/03 A3013 RMK A01 T01300031  RH  051%=      5-min Rain = 0
KWOS 050352Z 14007KT 13/03 A3013 RMK A01 T01310032  RH  051%=      5-min Rain = 0
KWOS 050353Z 14007KT 13/03 A3013 RMK A01 T01320031  RH  051%=      5-min Rain = 0
KWOS 050354Z 15007KT 13/03 A3013 RMK A01 T01320031  RH  050%=      5-min Rain = 0
KWOS 050355Z 14007KT 13/03 A3013 RMK A01 T01320031  RH  051%=      5-min Rain = 0
KWOS 050356Z 14007KT 13/03 A3013 RMK A01 T01320032  RH  051%=      5-min Rain = 0
KWOS 050357Z 14007KT 13/03 A3013 RMK A01 T01310031  RH  051%=      5-min Rain = 0
KWOS 050358Z 14007KT 13/03 A3013 RMK A01 T01300030  RH  051%=      5-min Rain = 0
KWOS 050359Z 15006KT 13/03 A3013 RMK A01 T01290030  RH  051%=      5-min Rain = 0
KWOS 050400Z 15007KT 13/03 A3013 RMK A01 T01290031  RH  051%=      5-min Rain = 0
KWOS 050401Z 14007KT 13/03 A3013 RMK A01 T01290031  RH  051%=      5-min Rain = 0
KWOS 050402Z 14007KT 13/03 A3013 RMK A01 T01290031  RH  052%=      5-min Rain = 0
KWOS 050403Z 15007KT 13/03 A3013 RMK A01 T01280031  RH  052%=      5-min Rain = 0
KWOS 050404Z 15007KT 13/03 A3013 RMK A01 T01280031  RH  052%=      5-min Rain = 0
KWOS 050405Z 15007KT 13/03 A3013 RMK A01 T01280032  RH  052%=      5-min Rain = 0
KWOS 050406Z 15007KT 13/03 A3013 RMK A01 T01280033  RH  052%=      5-min Rain = 0
KWOS 050407Z 15006KT 13/03 A3013 RMK A01 T01290033  RH  052%=      5-min Rain = 0
KWOS 050408Z 15006KT 13/04 A3013 RMK A01 T01290035  RH  053%=      5-min Rain = 0
KWOS 050409Z 15006KT 13/04 A3013 RMK A01 T01310036  RH  053%=      5-min Rain = 0
KWOS 050410Z 15006KT 13/04 A3013 RMK A01 T01320035  RH  052%=      5-min Rain = 0
KWOS 050411Z 15007KT 13/04 A3013 RMK A01 T01320035  RH  052%=      5-min Rain = 0
KWOS 050412Z 15007KT 13/04 A3013 RMK A01 T01320035  RH  052%=      5-min Rain = 0
KWOS 050413Z 15006KT 13/03 A3013 RMK A01 T01310034  RH  052%=      5-min Rain = 0
KWOS 050414Z 15006KT 13/04 A3014 RMK A01 T01300035  RH  052%=      5-min Rain = 0
KWOS 050415Z 15006KT 13/03 A3014 RMK A01 T01280033  RH  052%=      5-min Rain = 0
KWOS 050416Z 15006KT 13/03 A3014 RMK A01 T01270032  RH  052%=      5-min Rain = 0
KWOS 050417Z 15006KT 13/03 A3014 RMK A01 T01270032  RH  052%=      5-min Rain = 0
KWOS 050418Z 14007KT 13/03 A3014 RMK A01 T01260032  RH  053%=      5-min Rain = 0
KWOS 050419Z 14006KT 13/03 A3014 RMK A01 T01260033  RH  053%=      5-min Rain = 0
KWOS 050420Z 15006KT 13/03 A3013 RMK A01 T01250033  RH  053%=      5-min Rain = 0
KWOS 050421Z 14006KT 13/03 A3013 RMK A01 T01250033  RH  054%=      5-min Rain = 0
KWOS 050422Z 14006KT 13/03 A3013 RMK A01 T01250034  RH  054%=      5-min Rain = 0
KWOS 050423Z 14006KT 13/03 A3013 RMK A01 T01260034  RH  054%=      5-min Rain = 0
KWOS 050424Z 14006KT 13/04 A3013 RMK A01 T01260035  RH  054%=      5-min Rain = 0
KWOS 050425Z 15006KT 13/04 A3013 RMK A01 T01260035  RH  054%=      5-min Rain = 0
KWOS 050426Z 15006KT 13/04 A3013 RMK A01 T01260035  RH  054%=      5-min Rain = 0
KWOS 050427Z 15006KT 13/04 A3013 RMK A01 T01260035  RH  054%=      5-min Rain = 0
KWOS 050428Z 15006KT 13/04 A3013 RMK A01 T01260035  RH  054%=      5-min Rain = 0
KWOS 050429Z 15006KT 13/04 A3013 RMK A01 T01270036  RH  054%=      5-min Rain = 0
KWOS 050430Z 15006KT 13/04 A3013 RMK A01 T01280036  RH  054%=      5-min Rain = 0
KWOS 050431Z 15006KT 13/04 A3013 RMK A01 T01280036  RH  054%=      5-min Rain = 0
KWOS 050432Z 15006KT 13/04 A3013 RMK A01 T01280037  RH  054%=      5-min Rain = 0
KWOS 050433Z 15006KT 13/04 A3013 RMK A01 T01270037  RH  054%=      5-min Rain = 0
KWOS 050434Z 15007KT 13/04 A3013 RMK A01 T01270036  RH  054%=      5-min Rain = 0
KWOS 050435Z 15006KT 13/04 A3013 RMK A01 T01270036  RH  054%=      5-min Rain = 0
KWOS 050436Z 15007KT 13/04 A3013 RMK A01 T01260035  RH  054%=      5-min Rain = 0
KWOS 050437Z 15007KT 13/04 A3013 RMK A01 T01260035  RH  054%=      5-min Rain = 0
KWOS 050438Z 14006KT 13/03 A3013 RMK A01 T01250034  RH  054%=      5-min Rain = 0
KWOS 050439Z 15007KT 13/03 A3013 RMK A01 T01250033  RH  054%=      5-min Rain = 0
KWOS 050440Z 14007KT 12/03 A3013 RMK A01 T01240033  RH  054%=      5-min Rain = 0
KWOS 050441Z 14007KT 12/03 A3013 RMK A01 T01230033  RH  054%=      5-min Rain = 0
KWOS 050442Z 15007KT 12/03 A3013 RMK A01 T01230033  RH  054%=      5-min Rain = 0
KWOS 050443Z 15007KT 12/03 A3013 RMK A01 T01220033  RH  055%=      5-min Rain = 0
KWOS 050444Z 15007KT 12/03 A3013 RMK A01 T01220034  RH  055%=      5-min Rain = 0
KWOS 050445Z 15006KT 12/04 A3013 RMK A01 T01220037  RH  056%=      5-min Rain = 0
KWOS 050446Z 15006KT 12/04 A3013 RMK A01 T01220039  RH  057%=      5-min Rain = 0
KWOS 050447Z 16006KT 12/04 A3013 RMK A01 T01230040  RH  057%=      5-min Rain = 0
KWOS 050448Z 15007KT 12/04 A3013 RMK A01 T01240040  RH  057%=      5-min Rain = 0
KWOS 050449Z 16007KT 12/04 A3013 RMK A01 T01240041  RH  057%=      5-min Rain = 0
KWOS 050450Z 16007KT 12/04 A3013 RMK A01 T01240042  RH  057%=      5-min Rain = 0
KWOS 050451Z 15007KT 13/04 A3013 RMK A01 T01250043  RH  058%=      5-min Rain = 0
KWOS 050452Z 16007KT 13/04 A3013 RMK A01 T01250044  RH  058%=      5-min Rain = 0
KWOS 050453Z 16007KT 13/05 A3013 RMK A01 T01260046  RH  058%=      5-min Rain = 0
KWOS 050454Z 16006KT 13/05 A3013 RMK A01 T01270049  RH  059%=      5-min Rain = 0
KWOS 050455Z 16006KT 13/05 A3013 RMK A01 T01290051  RH  059%=      5-min Rain = 0
KWOS 050456Z 16007KT 13/05 A3013 RMK A01 T01310052  RH  059%=      5-min Rain = 0
KWOS 050457Z 16007KT 13/05 A3013 RMK A01 T01320054  RH  059%=      5-min Rain = 0
KWOS 050458Z 16007KT 13/05 A3013 RMK A01 T01330054  RH  059%=      5-min Rain = 0
KWOS 050459Z 16007KT 13/05 A3013 RMK A01 T01340054  RH  059%=      5-min Rain = 0

Page generated in 0.0645 seconds.